<?xml version="1.0" encoding="UTF-8" standalone="no" ?>
<gpx xmlns="http://www.topografix.com/GPX/1/1" xmlns:xsi="http://www.w3.org/2001/XMLSchema-instance" xsi:schemaLocation="http://www.topografix.com/GPX/1/1 http://www.topografix.com/GPX/1/1/gpx.xsd" version="1.1" creator="VisuGPX - https://www.visugpx.com">
  <metadata>
    <name>Fontainebleau 15 bosses</name>
    <desc><![CDATA[Boucle en forêt de Fontainebleau, 15 des 25 bosses.]]></desc>
  </metadata>
  <trk>
    <name><![CDATA[15 bosses]]></name>
    <cmt><![CDATA[24 févr. 2017 à 10:24:14]]></cmt>
    <trkseg>
      <trkpt lat="48.37307" lon="2.51047">
        <ele>70</ele>
        <time>2017-02-24T09:24:15Z</time>
      </trkpt>
      <trkpt lat="48.37308" lon="2.5106">
        <ele>70</ele>
        <time>2017-02-24T09:24:26Z</time>
      </trkpt>
      <trkpt lat="48.37311" lon="2.51076">
        <ele>66</ele>
        <time>2017-02-24T09:24:33Z</time>
      </trkpt>
      <trkpt lat="48.3731" lon="2.511">
        <ele>61</ele>
        <time>2017-02-24T09:24:45Z</time>
      </trkpt>
      <trkpt lat="48.37312" lon="2.51108">
        <ele>61</ele>
        <time>2017-02-24T09:24:55Z</time>
      </trkpt>
      <trkpt lat="48.37331" lon="2.51121">
        <ele>65</ele>
        <time>2017-02-24T09:25:20Z</time>
      </trkpt>
      <trkpt lat="48.37335" lon="2.51122">
        <ele>66</ele>
        <time>2017-02-24T09:25:46Z</time>
      </trkpt>
      <trkpt lat="48.37339" lon="2.51126">
        <ele>67</ele>
        <time>2017-02-24T09:25:53Z</time>
      </trkpt>
      <trkpt lat="48.37344" lon="2.5113">
        <ele>67</ele>
        <time>2017-02-24T09:25:58Z</time>
      </trkpt>
      <trkpt lat="48.37348" lon="2.51133">
        <ele>67</ele>
        <time>2017-02-24T09:26:02Z</time>
      </trkpt>
      <trkpt lat="48.37353" lon="2.51135">
        <ele>67</ele>
        <time>2017-02-24T09:26:07Z</time>
      </trkpt>
      <trkpt lat="48.37372" lon="2.51144">
        <ele>71</ele>
        <time>2017-02-24T09:26:28Z</time>
      </trkpt>
      <trkpt lat="48.37382" lon="2.51145">
        <ele>71</ele>
        <time>2017-02-24T09:26:38Z</time>
      </trkpt>
      <trkpt lat="48.37422" lon="2.51156">
        <ele>74</ele>
        <time>2017-02-24T09:27:07Z</time>
      </trkpt>
      <trkpt lat="48.37437" lon="2.51161">
        <ele>73</ele>
        <time>2017-02-24T09:27:17Z</time>
      </trkpt>
      <trkpt lat="48.37447" lon="2.51165">
        <ele>72</ele>
        <time>2017-02-24T09:27:25Z</time>
      </trkpt>
      <trkpt lat="48.37452" lon="2.51168">
        <ele>72</ele>
        <time>2017-02-24T09:27:29Z</time>
      </trkpt>
      <trkpt lat="48.37456" lon="2.51173">
        <ele>72</ele>
        <time>2017-02-24T09:27:34Z</time>
      </trkpt>
      <trkpt lat="48.37461" lon="2.51175">
        <ele>72</ele>
        <time>2017-02-24T09:27:38Z</time>
      </trkpt>
      <trkpt lat="48.37475" lon="2.51183">
        <ele>72</ele>
        <time>2017-02-24T09:27:49Z</time>
      </trkpt>
      <trkpt lat="48.37483" lon="2.51188">
        <ele>72</ele>
        <time>2017-02-24T09:27:56Z</time>
      </trkpt>
      <trkpt lat="48.37501" lon="2.51205">
        <ele>71</ele>
        <time>2017-02-24T09:28:12Z</time>
      </trkpt>
      <trkpt lat="48.37519" lon="2.51215">
        <ele>71</ele>
        <time>2017-02-24T09:28:26Z</time>
      </trkpt>
      <trkpt lat="48.37536" lon="2.5123">
        <ele>69</ele>
        <time>2017-02-24T09:28:42Z</time>
      </trkpt>
      <trkpt lat="48.37572" lon="2.51248">
        <ele>67</ele>
        <time>2017-02-24T09:29:10Z</time>
      </trkpt>
      <trkpt lat="48.37581" lon="2.51249">
        <ele>67</ele>
        <time>2017-02-24T09:29:20Z</time>
      </trkpt>
      <trkpt lat="48.376" lon="2.51259">
        <ele>67</ele>
        <time>2017-02-24T09:29:34Z</time>
      </trkpt>
      <trkpt lat="48.37619" lon="2.51268">
        <ele>65</ele>
        <time>2017-02-24T09:29:48Z</time>
      </trkpt>
      <trkpt lat="48.37628" lon="2.51269">
        <ele>65</ele>
        <time>2017-02-24T09:29:55Z</time>
      </trkpt>
      <trkpt lat="48.37637" lon="2.51273">
        <ele>65</ele>
        <time>2017-02-24T09:30:08Z</time>
      </trkpt>
      <trkpt lat="48.37646" lon="2.51276">
        <ele>66</ele>
        <time>2017-02-24T09:30:16Z</time>
      </trkpt>
      <trkpt lat="48.37655" lon="2.51274">
        <ele>66</ele>
        <time>2017-02-24T09:30:25Z</time>
      </trkpt>
      <trkpt lat="48.37673" lon="2.5126">
        <ele>66</ele>
        <time>2017-02-24T09:30:43Z</time>
      </trkpt>
      <trkpt lat="48.3769" lon="2.51245">
        <ele>68</ele>
        <time>2017-02-24T09:30:57Z</time>
      </trkpt>
      <trkpt lat="48.377" lon="2.51246">
        <ele>69</ele>
        <time>2017-02-24T09:31:03Z</time>
      </trkpt>
      <trkpt lat="48.37708" lon="2.51254">
        <ele>69</ele>
        <time>2017-02-24T09:31:09Z</time>
      </trkpt>
      <trkpt lat="48.3772" lon="2.51279">
        <ele>65</ele>
        <time>2017-02-24T09:31:26Z</time>
      </trkpt>
      <trkpt lat="48.37727" lon="2.51289">
        <ele>63</ele>
        <time>2017-02-24T09:31:38Z</time>
      </trkpt>
      <trkpt lat="48.37734" lon="2.51298">
        <ele>64</ele>
        <time>2017-02-24T09:31:52Z</time>
      </trkpt>
      <trkpt lat="48.37741" lon="2.51302">
        <ele>64</ele>
        <time>2017-02-24T09:32:04Z</time>
      </trkpt>
      <trkpt lat="48.37747" lon="2.51301">
        <ele>64</ele>
        <time>2017-02-24T09:32:08Z</time>
      </trkpt>
      <trkpt lat="48.37756" lon="2.51293">
        <ele>66</ele>
        <time>2017-02-24T09:32:19Z</time>
      </trkpt>
      <trkpt lat="48.3776" lon="2.51289">
        <ele>66</ele>
        <time>2017-02-24T09:32:23Z</time>
      </trkpt>
      <trkpt lat="48.37772" lon="2.51275">
        <ele>66</ele>
        <time>2017-02-24T09:32:34Z</time>
      </trkpt>
      <trkpt lat="48.37775" lon="2.51269">
        <ele>66</ele>
        <time>2017-02-24T09:32:41Z</time>
      </trkpt>
      <trkpt lat="48.37778" lon="2.51264">
        <ele>66</ele>
        <time>2017-02-24T09:32:45Z</time>
      </trkpt>
      <trkpt lat="48.37784" lon="2.51252">
        <ele>66</ele>
        <time>2017-02-24T09:32:54Z</time>
      </trkpt>
      <trkpt lat="48.37787" lon="2.51247">
        <ele>66</ele>
        <time>2017-02-24T09:32:57Z</time>
      </trkpt>
      <trkpt lat="48.37792" lon="2.51227">
        <ele>67</ele>
        <time>2017-02-24T09:33:06Z</time>
      </trkpt>
      <trkpt lat="48.37825" lon="2.51194">
        <ele>70</ele>
        <time>2017-02-24T09:33:36Z</time>
      </trkpt>
      <trkpt lat="48.37849" lon="2.51176">
        <ele>72</ele>
        <time>2017-02-24T09:33:57Z</time>
      </trkpt>
      <trkpt lat="48.37855" lon="2.51166">
        <ele>71</ele>
        <time>2017-02-24T09:34:05Z</time>
      </trkpt>
      <trkpt lat="48.37861" lon="2.51156">
        <ele>71</ele>
        <time>2017-02-24T09:34:12Z</time>
      </trkpt>
      <trkpt lat="48.37878" lon="2.51103">
        <ele>72</ele>
        <time>2017-02-24T09:34:41Z</time>
      </trkpt>
      <trkpt lat="48.37881" lon="2.51088">
        <ele>71</ele>
        <time>2017-02-24T09:34:47Z</time>
      </trkpt>
      <trkpt lat="48.37889" lon="2.51082">
        <ele>71</ele>
        <time>2017-02-24T09:34:55Z</time>
      </trkpt>
      <trkpt lat="48.37897" lon="2.51076">
        <ele>70</ele>
        <time>2017-02-24T09:35:01Z</time>
      </trkpt>
      <trkpt lat="48.37925" lon="2.5107">
        <ele>68</ele>
        <time>2017-02-24T09:35:39Z</time>
      </trkpt>
      <trkpt lat="48.37931" lon="2.5108">
        <ele>68</ele>
        <time>2017-02-24T09:35:57Z</time>
      </trkpt>
      <trkpt lat="48.37941" lon="2.51079">
        <ele>68</ele>
        <time>2017-02-24T09:36:11Z</time>
      </trkpt>
      <trkpt lat="48.37952" lon="2.51072">
        <ele>68</ele>
        <time>2017-02-24T09:36:57Z</time>
      </trkpt>
      <trkpt lat="48.37962" lon="2.51073">
        <ele>71</ele>
        <time>2017-02-24T09:37:21Z</time>
      </trkpt>
      <trkpt lat="48.37967" lon="2.51079">
        <ele>75</ele>
        <time>2017-02-24T09:37:59Z</time>
      </trkpt>
      <trkpt lat="48.37973" lon="2.51084">
        <ele>79</ele>
        <time>2017-02-24T09:38:33Z</time>
      </trkpt>
      <trkpt lat="48.37977" lon="2.51085">
        <ele>80</ele>
        <time>2017-02-24T09:38:55Z</time>
      </trkpt>
      <trkpt lat="48.37981" lon="2.51087">
        <ele>80</ele>
        <time>2017-02-24T09:39:08Z</time>
      </trkpt>
      <trkpt lat="48.37996" lon="2.51084">
        <ele>82</ele>
        <time>2017-02-24T09:39:51Z</time>
      </trkpt>
      <trkpt lat="48.38004" lon="2.51079">
        <ele>89</ele>
        <time>2017-02-24T09:40:21Z</time>
      </trkpt>
      <trkpt lat="48.38008" lon="2.51074">
        <ele>91</ele>
        <time>2017-02-24T09:40:45Z</time>
      </trkpt>
      <trkpt lat="48.38006" lon="2.51087">
        <ele>92</ele>
        <time>2017-02-24T09:41:13Z</time>
      </trkpt>
      <trkpt lat="48.38011" lon="2.51093">
        <ele>95</ele>
        <time>2017-02-24T09:41:33Z</time>
      </trkpt>
      <trkpt lat="48.38015" lon="2.51097">
        <ele>97</ele>
        <time>2017-02-24T09:41:40Z</time>
      </trkpt>
      <trkpt lat="48.38016" lon="2.51104">
        <ele>98</ele>
        <time>2017-02-24T09:41:57Z</time>
      </trkpt>
      <trkpt lat="48.3802" lon="2.51107">
        <ele>100</ele>
        <time>2017-02-24T09:42:19Z</time>
      </trkpt>
      <trkpt lat="48.38018" lon="2.51113">
        <ele>100</ele>
        <time>2017-02-24T09:42:32Z</time>
      </trkpt>
      <trkpt lat="48.38024" lon="2.51116">
        <ele>99</ele>
        <time>2017-02-24T09:42:51Z</time>
      </trkpt>
      <trkpt lat="48.38029" lon="2.51133">
        <ele>99</ele>
        <time>2017-02-24T09:43:39Z</time>
      </trkpt>
      <trkpt lat="48.3804" lon="2.51134">
        <ele>102</ele>
        <time>2017-02-24T09:44:00Z</time>
      </trkpt>
      <trkpt lat="48.38052" lon="2.51151">
        <ele>100</ele>
        <time>2017-02-24T09:44:26Z</time>
      </trkpt>
      <trkpt lat="48.38062" lon="2.51176">
        <ele>99</ele>
        <time>2017-02-24T09:44:48Z</time>
      </trkpt>
      <trkpt lat="48.38071" lon="2.51176">
        <ele>99</ele>
        <time>2017-02-24T09:44:57Z</time>
      </trkpt>
      <trkpt lat="48.38077" lon="2.51188">
        <ele>97</ele>
        <time>2017-02-24T09:45:08Z</time>
      </trkpt>
      <trkpt lat="48.38076" lon="2.51187">
        <ele>98</ele>
        <time>2017-02-24T09:46:43Z</time>
      </trkpt>
      <trkpt lat="48.38076" lon="2.51199">
        <ele>97</ele>
        <time>2017-02-24T09:47:04Z</time>
      </trkpt>
      <trkpt lat="48.38076" lon="2.51206">
        <ele>99</ele>
        <time>2017-02-24T09:47:26Z</time>
      </trkpt>
      <trkpt lat="48.38076" lon="2.51213">
        <ele>99</ele>
        <time>2017-02-24T09:47:36Z</time>
      </trkpt>
      <trkpt lat="48.38084" lon="2.51224">
        <ele>98</ele>
        <time>2017-02-24T09:48:08Z</time>
      </trkpt>
      <trkpt lat="48.3809" lon="2.5122">
        <ele>99</ele>
        <time>2017-02-24T09:48:16Z</time>
      </trkpt>
      <trkpt lat="48.38094" lon="2.51233">
        <ele>100</ele>
        <time>2017-02-24T09:48:33Z</time>
      </trkpt>
      <trkpt lat="48.38094" lon="2.5124">
        <ele>100</ele>
        <time>2017-02-24T09:48:41Z</time>
      </trkpt>
      <trkpt lat="48.38099" lon="2.5124">
        <ele>100</ele>
        <time>2017-02-24T09:48:48Z</time>
      </trkpt>
      <trkpt lat="48.38109" lon="2.51238">
        <ele>99</ele>
        <time>2017-02-24T09:49:44Z</time>
      </trkpt>
      <trkpt lat="48.38112" lon="2.51238">
        <ele>100</ele>
        <time>2017-02-24T09:50:33Z</time>
      </trkpt>
      <trkpt lat="48.38122" lon="2.51247">
        <ele>100</ele>
        <time>2017-02-24T09:51:15Z</time>
      </trkpt>
      <trkpt lat="48.38132" lon="2.51244">
        <ele>110</ele>
        <time>2017-02-24T09:52:02Z</time>
      </trkpt>
      <trkpt lat="48.38134" lon="2.51237">
        <ele>113</ele>
        <time>2017-02-24T09:56:37Z</time>
      </trkpt>
      <trkpt lat="48.38139" lon="2.5124">
        <ele>112</ele>
        <time>2017-02-24T09:58:06Z</time>
      </trkpt>
      <trkpt lat="48.38145" lon="2.51241">
        <ele>111</ele>
        <time>2017-02-24T09:58:31Z</time>
      </trkpt>
      <trkpt lat="48.38141" lon="2.51249">
        <ele>113</ele>
        <time>2017-02-24T09:59:04Z</time>
      </trkpt>
      <trkpt lat="48.38146" lon="2.5125">
        <ele>114</ele>
        <time>2017-02-24T09:59:44Z</time>
      </trkpt>
      <trkpt lat="48.38149" lon="2.51254">
        <ele>114</ele>
        <time>2017-02-24T09:59:54Z</time>
      </trkpt>
      <trkpt lat="48.38155" lon="2.51253">
        <ele>116</ele>
        <time>2017-02-24T10:00:38Z</time>
      </trkpt>
      <trkpt lat="48.38158" lon="2.51258">
        <ele>115</ele>
        <time>2017-02-24T10:00:52Z</time>
      </trkpt>
      <trkpt lat="48.38166" lon="2.51254">
        <ele>113</ele>
        <time>2017-02-24T10:01:28Z</time>
      </trkpt>
      <trkpt lat="48.38181" lon="2.51259">
        <ele>112</ele>
        <time>2017-02-24T10:02:37Z</time>
      </trkpt>
      <trkpt lat="48.38177" lon="2.5125">
        <ele>115</ele>
        <time>2017-02-24T10:03:07Z</time>
      </trkpt>
      <trkpt lat="48.38183" lon="2.51248">
        <ele>114</ele>
        <time>2017-02-24T10:03:39Z</time>
      </trkpt>
      <trkpt lat="48.38188" lon="2.51247">
        <ele>113</ele>
        <time>2017-02-24T10:03:46Z</time>
      </trkpt>
      <trkpt lat="48.38193" lon="2.51248">
        <ele>111</ele>
        <time>2017-02-24T10:04:07Z</time>
      </trkpt>
      <trkpt lat="48.38198" lon="2.51247">
        <ele>108</ele>
        <time>2017-02-24T10:04:17Z</time>
      </trkpt>
      <trkpt lat="48.38202" lon="2.51246">
        <ele>107</ele>
        <time>2017-02-24T10:04:31Z</time>
      </trkpt>
      <trkpt lat="48.38211" lon="2.5124">
        <ele>105</ele>
        <time>2017-02-24T10:04:51Z</time>
      </trkpt>
      <trkpt lat="48.38213" lon="2.51246">
        <ele>104</ele>
        <time>2017-02-24T10:04:58Z</time>
      </trkpt>
      <trkpt lat="48.38224" lon="2.5125">
        <ele>101</ele>
        <time>2017-02-24T10:05:25Z</time>
      </trkpt>
      <trkpt lat="48.38233" lon="2.51249">
        <ele>101</ele>
        <time>2017-02-24T10:05:40Z</time>
      </trkpt>
      <trkpt lat="48.38241" lon="2.51257">
        <ele>100</ele>
        <time>2017-02-24T10:05:55Z</time>
      </trkpt>
      <trkpt lat="48.38253" lon="2.51275">
        <ele>92</ele>
        <time>2017-02-24T10:06:32Z</time>
      </trkpt>
      <trkpt lat="48.38261" lon="2.51279">
        <ele>91</ele>
        <time>2017-02-24T10:06:41Z</time>
      </trkpt>
      <trkpt lat="48.38267" lon="2.5129">
        <ele>89</ele>
        <time>2017-02-24T10:06:52Z</time>
      </trkpt>
      <trkpt lat="48.38275" lon="2.51297">
        <ele>89</ele>
        <time>2017-02-24T10:07:01Z</time>
      </trkpt>
      <trkpt lat="48.38277" lon="2.51304">
        <ele>90</ele>
        <time>2017-02-24T10:07:45Z</time>
      </trkpt>
      <trkpt lat="48.38279" lon="2.5131">
        <ele>89</ele>
        <time>2017-02-24T10:07:52Z</time>
      </trkpt>
      <trkpt lat="48.38283" lon="2.51321">
        <ele>86</ele>
        <time>2017-02-24T10:08:18Z</time>
      </trkpt>
      <trkpt lat="48.38299" lon="2.51336">
        <ele>84</ele>
        <time>2017-02-24T10:08:36Z</time>
      </trkpt>
      <trkpt lat="48.38306" lon="2.51341">
        <ele>81</ele>
        <time>2017-02-24T10:11:15Z</time>
      </trkpt>
      <trkpt lat="48.38304" lon="2.51348">
        <ele>81</ele>
        <time>2017-02-24T10:12:08Z</time>
      </trkpt>
      <trkpt lat="48.38301" lon="2.51355">
        <ele>81</ele>
        <time>2017-02-24T10:14:52Z</time>
      </trkpt>
      <trkpt lat="48.38304" lon="2.51369">
        <ele>79</ele>
        <time>2017-02-24T10:15:12Z</time>
      </trkpt>
      <trkpt lat="48.38311" lon="2.51376">
        <ele>79</ele>
        <time>2017-02-24T10:15:28Z</time>
      </trkpt>
      <trkpt lat="48.38323" lon="2.51382">
        <ele>82</ele>
        <time>2017-02-24T10:15:48Z</time>
      </trkpt>
      <trkpt lat="48.38331" lon="2.51392">
        <ele>86</ele>
        <time>2017-02-24T10:16:17Z</time>
      </trkpt>
      <trkpt lat="48.38336" lon="2.51402">
        <ele>90</ele>
        <time>2017-02-24T10:16:53Z</time>
      </trkpt>
      <trkpt lat="48.38341" lon="2.51407">
        <ele>90</ele>
        <time>2017-02-24T10:17:04Z</time>
      </trkpt>
      <trkpt lat="48.38343" lon="2.51414">
        <ele>91</ele>
        <time>2017-02-24T10:17:11Z</time>
      </trkpt>
      <trkpt lat="48.38343" lon="2.51421">
        <ele>92</ele>
        <time>2017-02-24T10:17:17Z</time>
      </trkpt>
      <trkpt lat="48.38344" lon="2.51429">
        <ele>92</ele>
        <time>2017-02-24T10:17:23Z</time>
      </trkpt>
      <trkpt lat="48.38342" lon="2.51436">
        <ele>92</ele>
        <time>2017-02-24T10:17:27Z</time>
      </trkpt>
      <trkpt lat="48.38346" lon="2.5145">
        <ele>92</ele>
        <time>2017-02-24T10:17:35Z</time>
      </trkpt>
      <trkpt lat="48.38349" lon="2.51456">
        <ele>92</ele>
        <time>2017-02-24T10:17:40Z</time>
      </trkpt>
      <trkpt lat="48.38351" lon="2.51462">
        <ele>92</ele>
        <time>2017-02-24T10:17:44Z</time>
      </trkpt>
      <trkpt lat="48.38353" lon="2.5147">
        <ele>92</ele>
        <time>2017-02-24T10:17:48Z</time>
      </trkpt>
      <trkpt lat="48.38357" lon="2.51498">
        <ele>94</ele>
        <time>2017-02-24T10:18:06Z</time>
      </trkpt>
      <trkpt lat="48.38348" lon="2.51523">
        <ele>94</ele>
        <time>2017-02-24T10:18:24Z</time>
      </trkpt>
      <trkpt lat="48.38348" lon="2.51541">
        <ele>94</ele>
        <time>2017-02-24T10:18:44Z</time>
      </trkpt>
      <trkpt lat="48.38342" lon="2.51554">
        <ele>94</ele>
        <time>2017-02-24T10:19:11Z</time>
      </trkpt>
      <trkpt lat="48.38344" lon="2.51568">
        <ele>94</ele>
        <time>2017-02-24T10:19:19Z</time>
      </trkpt>
      <trkpt lat="48.38343" lon="2.51584">
        <ele>93</ele>
        <time>2017-02-24T10:19:27Z</time>
      </trkpt>
      <trkpt lat="48.38335" lon="2.51606">
        <ele>92</ele>
        <time>2017-02-24T10:19:38Z</time>
      </trkpt>
      <trkpt lat="48.38338" lon="2.51619">
        <ele>93</ele>
        <time>2017-02-24T10:20:25Z</time>
      </trkpt>
      <trkpt lat="48.38331" lon="2.51629">
        <ele>92</ele>
        <time>2017-02-24T10:20:34Z</time>
      </trkpt>
      <trkpt lat="48.38323" lon="2.51638">
        <ele>93</ele>
        <time>2017-02-24T10:20:46Z</time>
      </trkpt>
      <trkpt lat="48.38318" lon="2.51649">
        <ele>92</ele>
        <time>2017-02-24T10:20:57Z</time>
      </trkpt>
      <trkpt lat="48.38314" lon="2.51662">
        <ele>91</ele>
        <time>2017-02-24T10:21:30Z</time>
      </trkpt>
      <trkpt lat="48.38313" lon="2.51679">
        <ele>97</ele>
        <time>2017-02-24T10:22:58Z</time>
      </trkpt>
      <trkpt lat="48.38314" lon="2.5168">
        <ele>100</ele>
        <time>2017-02-24T10:24:01Z</time>
      </trkpt>
      <trkpt lat="48.38307" lon="2.517">
        <ele>98</ele>
        <time>2017-02-24T10:24:35Z</time>
      </trkpt>
      <trkpt lat="48.38303" lon="2.51712">
        <ele>98</ele>
        <time>2017-02-24T10:25:14Z</time>
      </trkpt>
      <trkpt lat="48.38304" lon="2.51719">
        <ele>100</ele>
        <time>2017-02-24T10:25:24Z</time>
      </trkpt>
      <trkpt lat="48.38302" lon="2.51726">
        <ele>101</ele>
        <time>2017-02-24T10:25:33Z</time>
      </trkpt>
      <trkpt lat="48.38301" lon="2.51734">
        <ele>103</ele>
        <time>2017-02-24T10:27:01Z</time>
      </trkpt>
      <trkpt lat="48.38308" lon="2.5173">
        <ele>105</ele>
        <time>2017-02-24T10:28:28Z</time>
      </trkpt>
      <trkpt lat="48.38319" lon="2.51734">
        <ele>110</ele>
        <time>2017-02-24T10:28:59Z</time>
      </trkpt>
      <trkpt lat="48.38323" lon="2.51731">
        <ele>111</ele>
        <time>2017-02-24T10:29:04Z</time>
      </trkpt>
      <trkpt lat="48.38328" lon="2.51731">
        <ele>111</ele>
        <time>2017-02-24T10:29:12Z</time>
      </trkpt>
      <trkpt lat="48.38325" lon="2.51744">
        <ele>111</ele>
        <time>2017-02-24T10:30:14Z</time>
      </trkpt>
      <trkpt lat="48.38332" lon="2.51751">
        <ele>110</ele>
        <time>2017-02-24T10:30:37Z</time>
      </trkpt>
      <trkpt lat="48.3834" lon="2.5176">
        <ele>105</ele>
        <time>2017-02-24T10:31:06Z</time>
      </trkpt>
      <trkpt lat="48.38349" lon="2.51761">
        <ele>104</ele>
        <time>2017-02-24T10:31:34Z</time>
      </trkpt>
      <trkpt lat="48.38361" lon="2.51769">
        <ele>106</ele>
        <time>2017-02-24T10:32:25Z</time>
      </trkpt>
      <trkpt lat="48.38372" lon="2.51787">
        <ele>99</ele>
        <time>2017-02-24T10:33:10Z</time>
      </trkpt>
      <trkpt lat="48.38381" lon="2.51781">
        <ele>97</ele>
        <time>2017-02-24T10:33:20Z</time>
      </trkpt>
      <trkpt lat="48.38384" lon="2.51768">
        <ele>96</ele>
        <time>2017-02-24T10:33:29Z</time>
      </trkpt>
      <trkpt lat="48.38393" lon="2.51761">
        <ele>91</ele>
        <time>2017-02-24T10:34:00Z</time>
      </trkpt>
      <trkpt lat="48.38402" lon="2.51764">
        <ele>89</ele>
        <time>2017-02-24T10:34:28Z</time>
      </trkpt>
      <trkpt lat="48.38411" lon="2.5178">
        <ele>88</ele>
        <time>2017-02-24T10:34:59Z</time>
      </trkpt>
      <trkpt lat="48.38422" lon="2.51803">
        <ele>85</ele>
        <time>2017-02-24T10:35:22Z</time>
      </trkpt>
      <trkpt lat="48.3843" lon="2.51811">
        <ele>83</ele>
        <time>2017-02-24T10:35:33Z</time>
      </trkpt>
      <trkpt lat="48.3844" lon="2.51824">
        <ele>85</ele>
        <time>2017-02-24T10:36:13Z</time>
      </trkpt>
      <trkpt lat="48.3845" lon="2.51822">
        <ele>87</ele>
        <time>2017-02-24T10:36:23Z</time>
      </trkpt>
      <trkpt lat="48.38463" lon="2.51825">
        <ele>88</ele>
        <time>2017-02-24T10:36:46Z</time>
      </trkpt>
      <trkpt lat="48.38468" lon="2.51837">
        <ele>87</ele>
        <time>2017-02-24T10:37:04Z</time>
      </trkpt>
      <trkpt lat="48.3847" lon="2.5185">
        <ele>84</ele>
        <time>2017-02-24T10:37:21Z</time>
      </trkpt>
      <trkpt lat="48.38474" lon="2.51863">
        <ele>83</ele>
        <time>2017-02-24T10:37:39Z</time>
      </trkpt>
      <trkpt lat="48.38482" lon="2.51869">
        <ele>85</ele>
        <time>2017-02-24T10:37:48Z</time>
      </trkpt>
      <trkpt lat="48.38484" lon="2.51882">
        <ele>86</ele>
        <time>2017-02-24T10:38:04Z</time>
      </trkpt>
      <trkpt lat="48.38476" lon="2.51896">
        <ele>86</ele>
        <time>2017-02-24T10:38:22Z</time>
      </trkpt>
      <trkpt lat="48.38479" lon="2.5191">
        <ele>86</ele>
        <time>2017-02-24T10:38:38Z</time>
      </trkpt>
      <trkpt lat="48.38485" lon="2.51929">
        <ele>91</ele>
        <time>2017-02-24T10:39:16Z</time>
      </trkpt>
      <trkpt lat="48.38483" lon="2.51938">
        <ele>97</ele>
        <time>2017-02-24T10:40:47Z</time>
      </trkpt>
      <trkpt lat="48.38477" lon="2.51958">
        <ele>97</ele>
        <time>2017-02-24T10:43:47Z</time>
      </trkpt>
      <trkpt lat="48.38464" lon="2.51996">
        <ele>93</ele>
        <time>2017-02-24T10:44:11Z</time>
      </trkpt>
      <trkpt lat="48.38461" lon="2.5201">
        <ele>92</ele>
        <time>2017-02-24T10:44:25Z</time>
      </trkpt>
      <trkpt lat="48.38453" lon="2.52017">
        <ele>92</ele>
        <time>2017-02-24T10:44:32Z</time>
      </trkpt>
      <trkpt lat="48.38448" lon="2.52029">
        <ele>92</ele>
        <time>2017-02-24T10:44:43Z</time>
      </trkpt>
      <trkpt lat="48.38433" lon="2.52048">
        <ele>94</ele>
        <time>2017-02-24T10:45:03Z</time>
      </trkpt>
      <trkpt lat="48.38428" lon="2.5206">
        <ele>96</ele>
        <time>2017-02-24T10:45:15Z</time>
      </trkpt>
      <trkpt lat="48.38417" lon="2.52066">
        <ele>98</ele>
        <time>2017-02-24T10:45:43Z</time>
      </trkpt>
      <trkpt lat="48.38409" lon="2.52072">
        <ele>98</ele>
        <time>2017-02-24T10:46:01Z</time>
      </trkpt>
      <trkpt lat="48.38402" lon="2.52083">
        <ele>101</ele>
        <time>2017-02-24T10:46:26Z</time>
      </trkpt>
      <trkpt lat="48.38398" lon="2.521">
        <ele>106</ele>
        <time>2017-02-24T10:47:02Z</time>
      </trkpt>
      <trkpt lat="48.3839" lon="2.52104">
        <ele>113</ele>
        <time>2017-02-24T10:47:33Z</time>
      </trkpt>
      <trkpt lat="48.38389" lon="2.52111">
        <ele>114</ele>
        <time>2017-02-24T10:47:42Z</time>
      </trkpt>
      <trkpt lat="48.38381" lon="2.52126">
        <ele>119</ele>
        <time>2017-02-24T10:48:58Z</time>
      </trkpt>
      <trkpt lat="48.3838" lon="2.52134">
        <ele>119</ele>
        <time>2017-02-24T10:49:04Z</time>
      </trkpt>
      <trkpt lat="48.38377" lon="2.52138">
        <ele>119</ele>
        <time>2017-02-24T10:49:09Z</time>
      </trkpt>
      <trkpt lat="48.38375" lon="2.52146">
        <ele>119</ele>
        <time>2017-02-24T10:49:15Z</time>
      </trkpt>
      <trkpt lat="48.38376" lon="2.52153">
        <ele>120</ele>
        <time>2017-02-24T10:49:19Z</time>
      </trkpt>
      <trkpt lat="48.38372" lon="2.52158">
        <ele>120</ele>
        <time>2017-02-24T10:49:23Z</time>
      </trkpt>
      <trkpt lat="48.38371" lon="2.52165">
        <ele>119</ele>
        <time>2017-02-24T10:49:29Z</time>
      </trkpt>
      <trkpt lat="48.38368" lon="2.52169">
        <ele>119</ele>
        <time>2017-02-24T10:49:33Z</time>
      </trkpt>
      <trkpt lat="48.38366" lon="2.52176">
        <ele>119</ele>
        <time>2017-02-24T10:49:38Z</time>
      </trkpt>
      <trkpt lat="48.38366" lon="2.52186">
        <ele>119</ele>
        <time>2017-02-24T10:49:53Z</time>
      </trkpt>
      <trkpt lat="48.38365" lon="2.52194">
        <ele>119</ele>
        <time>2017-02-24T10:51:48Z</time>
      </trkpt>
      <trkpt lat="48.38368" lon="2.52201">
        <ele>118</ele>
        <time>2017-02-24T10:52:08Z</time>
      </trkpt>
      <trkpt lat="48.38376" lon="2.52194">
        <ele>117</ele>
        <time>2017-02-24T10:54:58Z</time>
      </trkpt>
      <trkpt lat="48.38381" lon="2.5219">
        <ele>117</ele>
        <time>2017-02-24T10:55:02Z</time>
      </trkpt>
      <trkpt lat="48.38386" lon="2.52189">
        <ele>117</ele>
        <time>2017-02-24T10:55:08Z</time>
      </trkpt>
      <trkpt lat="48.38391" lon="2.52191">
        <ele>119</ele>
        <time>2017-02-24T10:55:16Z</time>
      </trkpt>
      <trkpt lat="48.38393" lon="2.52199">
        <ele>120</ele>
        <time>2017-02-24T10:55:32Z</time>
      </trkpt>
      <trkpt lat="48.38394" lon="2.52206">
        <ele>119</ele>
        <time>2017-02-24T10:55:42Z</time>
      </trkpt>
      <trkpt lat="48.38392" lon="2.52213">
        <ele>119</ele>
        <time>2017-02-24T10:55:54Z</time>
      </trkpt>
      <trkpt lat="48.38398" lon="2.52217">
        <ele>117</ele>
        <time>2017-02-24T10:56:15Z</time>
      </trkpt>
      <trkpt lat="48.38399" lon="2.52235">
        <ele>113</ele>
        <time>2017-02-24T10:57:15Z</time>
      </trkpt>
      <trkpt lat="48.38408" lon="2.52238">
        <ele>106</ele>
        <time>2017-02-24T10:57:31Z</time>
      </trkpt>
      <trkpt lat="48.38402" lon="2.5225">
        <ele>106</ele>
        <time>2017-02-24T10:57:58Z</time>
      </trkpt>
      <trkpt lat="48.38405" lon="2.52264">
        <ele>102</ele>
        <time>2017-02-24T10:58:39Z</time>
      </trkpt>
      <trkpt lat="48.38416" lon="2.52272">
        <ele>100</ele>
        <time>2017-02-24T10:59:08Z</time>
      </trkpt>
      <trkpt lat="48.38416" lon="2.52286">
        <ele>96</ele>
        <time>2017-02-24T10:59:22Z</time>
      </trkpt>
      <trkpt lat="48.38422" lon="2.52296">
        <ele>95</ele>
        <time>2017-02-24T11:02:09Z</time>
      </trkpt>
      <trkpt lat="48.38432" lon="2.52297">
        <ele>94</ele>
        <time>2017-02-24T11:03:11Z</time>
      </trkpt>
      <trkpt lat="48.38441" lon="2.52295">
        <ele>96</ele>
        <time>2017-02-24T11:04:05Z</time>
      </trkpt>
      <trkpt lat="48.38451" lon="2.52305">
        <ele>100</ele>
        <time>2017-02-24T11:04:53Z</time>
      </trkpt>
      <trkpt lat="48.38464" lon="2.52311">
        <ele>107</ele>
        <time>2017-02-24T11:06:01Z</time>
      </trkpt>
      <trkpt lat="48.38468" lon="2.52321">
        <ele>110</ele>
        <time>2017-02-24T11:06:44Z</time>
      </trkpt>
      <trkpt lat="48.38471" lon="2.52327">
        <ele>111</ele>
        <time>2017-02-24T11:06:52Z</time>
      </trkpt>
      <trkpt lat="48.38478" lon="2.52326">
        <ele>113</ele>
        <time>2017-02-24T11:07:29Z</time>
      </trkpt>
      <trkpt lat="48.38483" lon="2.5232">
        <ele>115</ele>
        <time>2017-02-24T11:07:44Z</time>
      </trkpt>
      <trkpt lat="48.38488" lon="2.5232">
        <ele>116</ele>
        <time>2017-02-24T11:07:53Z</time>
      </trkpt>
      <trkpt lat="48.38493" lon="2.52321">
        <ele>116</ele>
        <time>2017-02-24T11:08:02Z</time>
      </trkpt>
      <trkpt lat="48.38502" lon="2.52321">
        <ele>118</ele>
        <time>2017-02-24T11:09:52Z</time>
      </trkpt>
      <trkpt lat="48.38507" lon="2.52319">
        <ele>117</ele>
        <time>2017-02-24T11:09:58Z</time>
      </trkpt>
      <trkpt lat="48.38511" lon="2.52315">
        <ele>114</ele>
        <time>2017-02-24T11:10:42Z</time>
      </trkpt>
      <trkpt lat="48.38516" lon="2.5231">
        <ele>114</ele>
        <time>2017-02-24T11:11:17Z</time>
      </trkpt>
      <trkpt lat="48.38521" lon="2.5231">
        <ele>114</ele>
        <time>2017-02-24T11:11:25Z</time>
      </trkpt>
      <trkpt lat="48.38526" lon="2.52315">
        <ele>111</ele>
        <time>2017-02-24T11:12:07Z</time>
      </trkpt>
      <trkpt lat="48.3853" lon="2.52312">
        <ele>111</ele>
        <time>2017-02-24T11:12:13Z</time>
      </trkpt>
      <trkpt lat="48.38535" lon="2.52309">
        <ele>110</ele>
        <time>2017-02-24T11:12:19Z</time>
      </trkpt>
      <trkpt lat="48.38539" lon="2.52307">
        <ele>109</ele>
        <time>2017-02-24T11:12:26Z</time>
      </trkpt>
      <trkpt lat="48.38546" lon="2.52306">
        <ele>106</ele>
        <time>2017-02-24T11:12:45Z</time>
      </trkpt>
      <trkpt lat="48.38549" lon="2.52315">
        <ele>103</ele>
        <time>2017-02-24T11:13:15Z</time>
      </trkpt>
      <trkpt lat="48.38556" lon="2.52305">
        <ele>100</ele>
        <time>2017-02-24T11:13:33Z</time>
      </trkpt>
      <trkpt lat="48.38559" lon="2.523">
        <ele>99</ele>
        <time>2017-02-24T11:13:38Z</time>
      </trkpt>
      <trkpt lat="48.38564" lon="2.52292">
        <ele>97</ele>
        <time>2017-02-24T11:13:54Z</time>
      </trkpt>
      <trkpt lat="48.38572" lon="2.5229">
        <ele>94</ele>
        <time>2017-02-24T11:14:15Z</time>
      </trkpt>
      <trkpt lat="48.38577" lon="2.52288">
        <ele>94</ele>
        <time>2017-02-24T11:14:20Z</time>
      </trkpt>
      <trkpt lat="48.38582" lon="2.5229">
        <ele>94</ele>
        <time>2017-02-24T11:14:27Z</time>
      </trkpt>
      <trkpt lat="48.38596" lon="2.52302">
        <ele>93</ele>
        <time>2017-02-24T11:14:47Z</time>
      </trkpt>
      <trkpt lat="48.386" lon="2.523">
        <ele>93</ele>
        <time>2017-02-24T11:14:51Z</time>
      </trkpt>
      <trkpt lat="48.38605" lon="2.52303">
        <ele>93</ele>
        <time>2017-02-24T11:14:56Z</time>
      </trkpt>
      <trkpt lat="48.38608" lon="2.52312">
        <ele>91</ele>
        <time>2017-02-24T11:15:08Z</time>
      </trkpt>
      <trkpt lat="48.38615" lon="2.52312">
        <ele>90</ele>
        <time>2017-02-24T11:15:22Z</time>
      </trkpt>
      <trkpt lat="48.38619" lon="2.52312">
        <ele>90</ele>
        <time>2017-02-24T11:15:34Z</time>
      </trkpt>
      <trkpt lat="48.38629" lon="2.52308">
        <ele>91</ele>
        <time>2017-02-24T11:15:46Z</time>
      </trkpt>
      <trkpt lat="48.38638" lon="2.52309">
        <ele>91</ele>
        <time>2017-02-24T11:16:03Z</time>
      </trkpt>
      <trkpt lat="48.38647" lon="2.52312">
        <ele>87</ele>
        <time>2017-02-24T11:16:25Z</time>
      </trkpt>
      <trkpt lat="48.38652" lon="2.52309">
        <ele>85</ele>
        <time>2017-02-24T11:16:31Z</time>
      </trkpt>
      <trkpt lat="48.38657" lon="2.52309">
        <ele>83</ele>
        <time>2017-02-24T11:16:36Z</time>
      </trkpt>
      <trkpt lat="48.38676" lon="2.52311">
        <ele>84</ele>
        <time>2017-02-24T11:16:53Z</time>
      </trkpt>
      <trkpt lat="48.38682" lon="2.52309">
        <ele>84</ele>
        <time>2017-02-24T11:16:58Z</time>
      </trkpt>
      <trkpt lat="48.38686" lon="2.52307">
        <ele>83</ele>
        <time>2017-02-24T11:17:03Z</time>
      </trkpt>
      <trkpt lat="48.38691" lon="2.52307">
        <ele>81</ele>
        <time>2017-02-24T11:17:10Z</time>
      </trkpt>
      <trkpt lat="48.38704" lon="2.52314">
        <ele>75</ele>
        <time>2017-02-24T11:19:40Z</time>
      </trkpt>
      <trkpt lat="48.38709" lon="2.52317">
        <ele>76</ele>
        <time>2017-02-24T11:19:46Z</time>
      </trkpt>
      <trkpt lat="48.38729" lon="2.5232">
        <ele>79</ele>
        <time>2017-02-24T11:20:05Z</time>
      </trkpt>
      <trkpt lat="48.38734" lon="2.5232">
        <ele>78</ele>
        <time>2017-02-24T11:20:13Z</time>
      </trkpt>
      <trkpt lat="48.38738" lon="2.52318">
        <ele>77</ele>
        <time>2017-02-24T11:20:20Z</time>
      </trkpt>
      <trkpt lat="48.38743" lon="2.52314">
        <ele>77</ele>
        <time>2017-02-24T11:20:26Z</time>
      </trkpt>
      <trkpt lat="48.38746" lon="2.52309">
        <ele>77</ele>
        <time>2017-02-24T11:20:32Z</time>
      </trkpt>
      <trkpt lat="48.38747" lon="2.52301">
        <ele>77</ele>
        <time>2017-02-24T11:20:40Z</time>
      </trkpt>
      <trkpt lat="48.3875" lon="2.52295">
        <ele>76</ele>
        <time>2017-02-24T11:20:46Z</time>
      </trkpt>
      <trkpt lat="48.38752" lon="2.52289">
        <ele>76</ele>
        <time>2017-02-24T11:20:53Z</time>
      </trkpt>
      <trkpt lat="48.38753" lon="2.52282">
        <ele>77</ele>
        <time>2017-02-24T11:20:59Z</time>
      </trkpt>
      <trkpt lat="48.38754" lon="2.52276">
        <ele>77</ele>
        <time>2017-02-24T11:21:05Z</time>
      </trkpt>
      <trkpt lat="48.38759" lon="2.52272">
        <ele>78</ele>
        <time>2017-02-24T11:21:14Z</time>
      </trkpt>
      <trkpt lat="48.38763" lon="2.52273">
        <ele>78</ele>
        <time>2017-02-24T11:21:17Z</time>
      </trkpt>
      <trkpt lat="48.38768" lon="2.52273">
        <ele>79</ele>
        <time>2017-02-24T11:21:21Z</time>
      </trkpt>
      <trkpt lat="48.38773" lon="2.52272">
        <ele>80</ele>
        <time>2017-02-24T11:21:26Z</time>
      </trkpt>
      <trkpt lat="48.38773" lon="2.52262">
        <ele>81</ele>
        <time>2017-02-24T11:21:37Z</time>
      </trkpt>
      <trkpt lat="48.38776" lon="2.52256">
        <ele>80</ele>
        <time>2017-02-24T11:21:44Z</time>
      </trkpt>
      <trkpt lat="48.38777" lon="2.52261">
        <ele>83</ele>
        <time>2017-02-24T11:23:10Z</time>
      </trkpt>
      <trkpt lat="48.38786" lon="2.52266">
        <ele>84</ele>
        <time>2017-02-24T11:23:22Z</time>
      </trkpt>
      <trkpt lat="48.38804" lon="2.52274">
        <ele>91</ele>
        <time>2017-02-24T11:23:47Z</time>
      </trkpt>
      <trkpt lat="48.3883" lon="2.52271">
        <ele>95</ele>
        <time>2017-02-24T11:24:29Z</time>
      </trkpt>
      <trkpt lat="48.3884" lon="2.52266">
        <ele>96</ele>
        <time>2017-02-24T11:25:09Z</time>
      </trkpt>
      <trkpt lat="48.38849" lon="2.52267">
        <ele>97</ele>
        <time>2017-02-24T11:25:29Z</time>
      </trkpt>
      <trkpt lat="48.38862" lon="2.52274">
        <ele>99</ele>
        <time>2017-02-24T11:26:04Z</time>
      </trkpt>
      <trkpt lat="48.38869" lon="2.52283">
        <ele>105</ele>
        <time>2017-02-24T11:26:56Z</time>
      </trkpt>
      <trkpt lat="48.38872" lon="2.52287">
        <ele>107</ele>
        <time>2017-02-24T11:27:05Z</time>
      </trkpt>
      <trkpt lat="48.38877" lon="2.52288">
        <ele>110</ele>
        <time>2017-02-24T11:27:13Z</time>
      </trkpt>
      <trkpt lat="48.38884" lon="2.52281">
        <ele>113</ele>
        <time>2017-02-24T11:27:32Z</time>
      </trkpt>
      <trkpt lat="48.38894" lon="2.52286">
        <ele>114</ele>
        <time>2017-02-24T11:27:44Z</time>
      </trkpt>
      <trkpt lat="48.38898" lon="2.52284">
        <ele>113</ele>
        <time>2017-02-24T11:27:48Z</time>
      </trkpt>
      <trkpt lat="48.38903" lon="2.52285">
        <ele>114</ele>
        <time>2017-02-24T11:27:55Z</time>
      </trkpt>
      <trkpt lat="48.38912" lon="2.52286">
        <ele>115</ele>
        <time>2017-02-24T11:28:11Z</time>
      </trkpt>
      <trkpt lat="48.38916" lon="2.52279">
        <ele>116</ele>
        <time>2017-02-24T11:28:25Z</time>
      </trkpt>
      <trkpt lat="48.3892" lon="2.52275">
        <ele>116</ele>
        <time>2017-02-24T11:28:30Z</time>
      </trkpt>
      <trkpt lat="48.38925" lon="2.52273">
        <ele>116</ele>
        <time>2017-02-24T11:28:35Z</time>
      </trkpt>
      <trkpt lat="48.38929" lon="2.52271">
        <ele>116</ele>
        <time>2017-02-24T11:28:47Z</time>
      </trkpt>
      <trkpt lat="48.38931" lon="2.52262">
        <ele>113</ele>
        <time>2017-02-24T11:29:20Z</time>
      </trkpt>
      <trkpt lat="48.38935" lon="2.52256">
        <ele>112</ele>
        <time>2017-02-24T11:29:28Z</time>
      </trkpt>
      <trkpt lat="48.38939" lon="2.52253">
        <ele>111</ele>
        <time>2017-02-24T11:29:34Z</time>
      </trkpt>
      <trkpt lat="48.3894" lon="2.52245">
        <ele>111</ele>
        <time>2017-02-24T11:29:41Z</time>
      </trkpt>
      <trkpt lat="48.38944" lon="2.52241">
        <ele>110</ele>
        <time>2017-02-24T11:29:51Z</time>
      </trkpt>
      <trkpt lat="48.38942" lon="2.52234">
        <ele>110</ele>
        <time>2017-02-24T11:29:55Z</time>
      </trkpt>
      <trkpt lat="48.38936" lon="2.52222">
        <ele>109</ele>
        <time>2017-02-24T11:30:01Z</time>
      </trkpt>
      <trkpt lat="48.38932" lon="2.52214">
        <ele>108</ele>
        <time>2017-02-24T11:30:05Z</time>
      </trkpt>
      <trkpt lat="48.38933" lon="2.52203">
        <ele>105</ele>
        <time>2017-02-24T11:30:24Z</time>
      </trkpt>
      <trkpt lat="48.38935" lon="2.52196">
        <ele>104</ele>
        <time>2017-02-24T11:30:32Z</time>
      </trkpt>
      <trkpt lat="48.38942" lon="2.52185">
        <ele>101</ele>
        <time>2017-02-24T11:30:44Z</time>
      </trkpt>
      <trkpt lat="48.38941" lon="2.52177">
        <ele>100</ele>
        <time>2017-02-24T11:30:53Z</time>
      </trkpt>
      <trkpt lat="48.38942" lon="2.5217">
        <ele>99</ele>
        <time>2017-02-24T11:31:00Z</time>
      </trkpt>
      <trkpt lat="48.38938" lon="2.52164">
        <ele>98</ele>
        <time>2017-02-24T11:31:05Z</time>
      </trkpt>
      <trkpt lat="48.38941" lon="2.52158">
        <ele>97</ele>
        <time>2017-02-24T11:31:12Z</time>
      </trkpt>
      <trkpt lat="48.38942" lon="2.52151">
        <ele>96</ele>
        <time>2017-02-24T11:31:17Z</time>
      </trkpt>
      <trkpt lat="48.38948" lon="2.52148">
        <ele>94</ele>
        <time>2017-02-24T11:31:21Z</time>
      </trkpt>
      <trkpt lat="48.38953" lon="2.52148">
        <ele>93</ele>
        <time>2017-02-24T11:31:24Z</time>
      </trkpt>
      <trkpt lat="48.38958" lon="2.52145">
        <ele>93</ele>
        <time>2017-02-24T11:31:28Z</time>
      </trkpt>
      <trkpt lat="48.38961" lon="2.52141">
        <ele>92</ele>
        <time>2017-02-24T11:31:35Z</time>
      </trkpt>
      <trkpt lat="48.38963" lon="2.52118">
        <ele>88</ele>
        <time>2017-02-24T11:31:54Z</time>
      </trkpt>
      <trkpt lat="48.38967" lon="2.52113">
        <ele>86</ele>
        <time>2017-02-24T11:31:59Z</time>
      </trkpt>
      <trkpt lat="48.38973" lon="2.52111">
        <ele>85</ele>
        <time>2017-02-24T11:32:04Z</time>
      </trkpt>
      <trkpt lat="48.38979" lon="2.52101">
        <ele>84</ele>
        <time>2017-02-24T11:32:13Z</time>
      </trkpt>
      <trkpt lat="48.38978" lon="2.52094">
        <ele>83</ele>
        <time>2017-02-24T11:32:16Z</time>
      </trkpt>
      <trkpt lat="48.38975" lon="2.52087">
        <ele>83</ele>
        <time>2017-02-24T11:32:20Z</time>
      </trkpt>
      <trkpt lat="48.38977" lon="2.52079">
        <ele>83</ele>
        <time>2017-02-24T11:32:24Z</time>
      </trkpt>
      <trkpt lat="48.38984" lon="2.52056">
        <ele>81</ele>
        <time>2017-02-24T11:32:45Z</time>
      </trkpt>
      <trkpt lat="48.38994" lon="2.52057">
        <ele>80</ele>
        <time>2017-02-24T11:32:57Z</time>
      </trkpt>
      <trkpt lat="48.38999" lon="2.52054">
        <ele>79</ele>
        <time>2017-02-24T11:33:02Z</time>
      </trkpt>
      <trkpt lat="48.39004" lon="2.52051">
        <ele>78</ele>
        <time>2017-02-24T11:33:07Z</time>
      </trkpt>
      <trkpt lat="48.39023" lon="2.52042">
        <ele>74</ele>
        <time>2017-02-24T11:33:25Z</time>
      </trkpt>
      <trkpt lat="48.39028" lon="2.52041">
        <ele>71</ele>
        <time>2017-02-24T11:34:03Z</time>
      </trkpt>
      <trkpt lat="48.39033" lon="2.52044">
        <ele>70</ele>
        <time>2017-02-24T11:34:08Z</time>
      </trkpt>
      <trkpt lat="48.39043" lon="2.52044">
        <ele>69</ele>
        <time>2017-02-24T11:34:19Z</time>
      </trkpt>
      <trkpt lat="48.39053" lon="2.52042">
        <ele>69</ele>
        <time>2017-02-24T11:34:28Z</time>
      </trkpt>
      <trkpt lat="48.39059" lon="2.52042">
        <ele>70</ele>
        <time>2017-02-24T11:34:33Z</time>
      </trkpt>
      <trkpt lat="48.39082" lon="2.52053">
        <ele>71</ele>
        <time>2017-02-24T11:34:54Z</time>
      </trkpt>
      <trkpt lat="48.39087" lon="2.52054">
        <ele>72</ele>
        <time>2017-02-24T11:34:58Z</time>
      </trkpt>
      <trkpt lat="48.39106" lon="2.5206">
        <ele>73</ele>
        <time>2017-02-24T11:35:19Z</time>
      </trkpt>
      <trkpt lat="48.3911" lon="2.5206">
        <ele>73</ele>
        <time>2017-02-24T11:35:24Z</time>
      </trkpt>
      <trkpt lat="48.39116" lon="2.5206">
        <ele>72</ele>
        <time>2017-02-24T11:35:29Z</time>
      </trkpt>
      <trkpt lat="48.39126" lon="2.52065">
        <ele>72</ele>
        <time>2017-02-24T11:35:39Z</time>
      </trkpt>
      <trkpt lat="48.39129" lon="2.52069">
        <ele>72</ele>
        <time>2017-02-24T11:35:44Z</time>
      </trkpt>
      <trkpt lat="48.39137" lon="2.52078">
        <ele>73</ele>
        <time>2017-02-24T11:35:52Z</time>
      </trkpt>
      <trkpt lat="48.3915" lon="2.52088">
        <ele>72</ele>
        <time>2017-02-24T11:36:09Z</time>
      </trkpt>
      <trkpt lat="48.39155" lon="2.52091">
        <ele>72</ele>
        <time>2017-02-24T11:36:14Z</time>
      </trkpt>
      <trkpt lat="48.39163" lon="2.52102">
        <ele>74</ele>
        <time>2017-02-24T11:36:24Z</time>
      </trkpt>
      <trkpt lat="48.39166" lon="2.52106">
        <ele>75</ele>
        <time>2017-02-24T11:36:29Z</time>
      </trkpt>
      <trkpt lat="48.3917" lon="2.52111">
        <ele>74</ele>
        <time>2017-02-24T11:36:35Z</time>
      </trkpt>
      <trkpt lat="48.39177" lon="2.52117">
        <ele>74</ele>
        <time>2017-02-24T11:37:26Z</time>
      </trkpt>
      <trkpt lat="48.39181" lon="2.52117">
        <ele>74</ele>
        <time>2017-02-24T11:37:31Z</time>
      </trkpt>
      <trkpt lat="48.39186" lon="2.52113">
        <ele>74</ele>
        <time>2017-02-24T11:37:36Z</time>
      </trkpt>
      <trkpt lat="48.39191" lon="2.52113">
        <ele>75</ele>
        <time>2017-02-24T11:37:40Z</time>
      </trkpt>
      <trkpt lat="48.39195" lon="2.5211">
        <ele>75</ele>
        <time>2017-02-24T11:37:44Z</time>
      </trkpt>
      <trkpt lat="48.39199" lon="2.52106">
        <ele>75</ele>
        <time>2017-02-24T11:37:50Z</time>
      </trkpt>
      <trkpt lat="48.39203" lon="2.52101">
        <ele>75</ele>
        <time>2017-02-24T11:37:58Z</time>
      </trkpt>
      <trkpt lat="48.39208" lon="2.52099">
        <ele>75</ele>
        <time>2017-02-24T11:38:03Z</time>
      </trkpt>
      <trkpt lat="48.39212" lon="2.52096">
        <ele>75</ele>
        <time>2017-02-24T11:38:08Z</time>
      </trkpt>
      <trkpt lat="48.3923" lon="2.52083">
        <ele>76</ele>
        <time>2017-02-24T11:38:31Z</time>
      </trkpt>
      <trkpt lat="48.39233" lon="2.52075">
        <ele>77</ele>
        <time>2017-02-24T11:38:53Z</time>
      </trkpt>
      <trkpt lat="48.39236" lon="2.52066">
        <ele>77</ele>
        <time>2017-02-24T11:39:10Z</time>
      </trkpt>
      <trkpt lat="48.39235" lon="2.52059">
        <ele>78</ele>
        <time>2017-02-24T11:39:15Z</time>
      </trkpt>
      <trkpt lat="48.39236" lon="2.52052">
        <ele>80</ele>
        <time>2017-02-24T11:39:21Z</time>
      </trkpt>
      <trkpt lat="48.39238" lon="2.52042">
        <ele>80</ele>
        <time>2017-02-24T11:39:31Z</time>
      </trkpt>
      <trkpt lat="48.39244" lon="2.52031">
        <ele>80</ele>
        <time>2017-02-24T11:39:39Z</time>
      </trkpt>
      <trkpt lat="48.39247" lon="2.52023">
        <ele>80</ele>
        <time>2017-02-24T11:39:43Z</time>
      </trkpt>
      <trkpt lat="48.39249" lon="2.5201">
        <ele>80</ele>
        <time>2017-02-24T11:39:49Z</time>
      </trkpt>
      <trkpt lat="48.39251" lon="2.52003">
        <ele>79</ele>
        <time>2017-02-24T11:39:53Z</time>
      </trkpt>
      <trkpt lat="48.39256" lon="2.52">
        <ele>80</ele>
        <time>2017-02-24T11:39:59Z</time>
      </trkpt>
      <trkpt lat="48.3926" lon="2.51995">
        <ele>80</ele>
        <time>2017-02-24T11:40:04Z</time>
      </trkpt>
      <trkpt lat="48.39262" lon="2.51988">
        <ele>81</ele>
        <time>2017-02-24T11:40:09Z</time>
      </trkpt>
      <trkpt lat="48.39266" lon="2.51982">
        <ele>82</ele>
        <time>2017-02-24T11:40:14Z</time>
      </trkpt>
      <trkpt lat="48.39274" lon="2.51953">
        <ele>86</ele>
        <time>2017-02-24T11:40:34Z</time>
      </trkpt>
      <trkpt lat="48.39277" lon="2.51948">
        <ele>86</ele>
        <time>2017-02-24T11:40:39Z</time>
      </trkpt>
      <trkpt lat="48.39287" lon="2.51932">
        <ele>88</ele>
        <time>2017-02-24T11:40:53Z</time>
      </trkpt>
      <trkpt lat="48.39302" lon="2.51913">
        <ele>91</ele>
        <time>2017-02-24T11:41:11Z</time>
      </trkpt>
      <trkpt lat="48.3931" lon="2.51907">
        <ele>94</ele>
        <time>2017-02-24T11:41:20Z</time>
      </trkpt>
      <trkpt lat="48.39325" lon="2.51892">
        <ele>95</ele>
        <time>2017-02-24T11:41:41Z</time>
      </trkpt>
      <trkpt lat="48.39334" lon="2.51889">
        <ele>95</ele>
        <time>2017-02-24T11:41:50Z</time>
      </trkpt>
      <trkpt lat="48.39344" lon="2.51886">
        <ele>97</ele>
        <time>2017-02-24T11:42:00Z</time>
      </trkpt>
      <trkpt lat="48.39352" lon="2.51878">
        <ele>98</ele>
        <time>2017-02-24T11:42:10Z</time>
      </trkpt>
      <trkpt lat="48.39352" lon="2.51849">
        <ele>99</ele>
        <time>2017-02-24T11:42:29Z</time>
      </trkpt>
      <trkpt lat="48.39361" lon="2.51824">
        <ele>99</ele>
        <time>2017-02-24T11:42:48Z</time>
      </trkpt>
      <trkpt lat="48.39367" lon="2.51813">
        <ele>98</ele>
        <time>2017-02-24T11:42:56Z</time>
      </trkpt>
      <trkpt lat="48.39372" lon="2.51801">
        <ele>97</ele>
        <time>2017-02-24T11:43:08Z</time>
      </trkpt>
      <trkpt lat="48.39376" lon="2.51791">
        <ele>97</ele>
        <time>2017-02-24T11:43:18Z</time>
      </trkpt>
      <trkpt lat="48.3938" lon="2.51788">
        <ele>97</ele>
        <time>2017-02-24T11:43:32Z</time>
      </trkpt>
      <trkpt lat="48.39385" lon="2.51789">
        <ele>97</ele>
        <time>2017-02-24T11:43:45Z</time>
      </trkpt>
      <trkpt lat="48.3939" lon="2.51789">
        <ele>97</ele>
        <time>2017-02-24T11:43:52Z</time>
      </trkpt>
      <trkpt lat="48.39396" lon="2.51778">
        <ele>98</ele>
        <time>2017-02-24T11:44:07Z</time>
      </trkpt>
      <trkpt lat="48.39395" lon="2.5177">
        <ele>98</ele>
        <time>2017-02-24T11:44:13Z</time>
      </trkpt>
      <trkpt lat="48.39396" lon="2.51756">
        <ele>97</ele>
        <time>2017-02-24T11:44:26Z</time>
      </trkpt>
      <trkpt lat="48.39405" lon="2.5174">
        <ele>97</ele>
        <time>2017-02-24T11:45:41Z</time>
      </trkpt>
      <trkpt lat="48.3941" lon="2.51728">
        <ele>97</ele>
        <time>2017-02-24T11:45:52Z</time>
      </trkpt>
      <trkpt lat="48.39418" lon="2.51722">
        <ele>99</ele>
        <time>2017-02-24T11:46:06Z</time>
      </trkpt>
      <trkpt lat="48.39427" lon="2.51719">
        <ele>99</ele>
        <time>2017-02-24T11:46:14Z</time>
      </trkpt>
      <trkpt lat="48.39437" lon="2.51716">
        <ele>98</ele>
        <time>2017-02-24T11:46:23Z</time>
      </trkpt>
      <trkpt lat="48.39443" lon="2.51705">
        <ele>98</ele>
        <time>2017-02-24T11:46:37Z</time>
      </trkpt>
      <trkpt lat="48.39455" lon="2.51703">
        <ele>97</ele>
        <time>2017-02-24T11:47:06Z</time>
      </trkpt>
      <trkpt lat="48.39452" lon="2.51705">
        <ele>94</ele>
        <time>2017-02-24T11:50:49Z</time>
      </trkpt>
      <trkpt lat="48.39449" lon="2.5171">
        <ele>94</ele>
        <time>2017-02-24T11:50:54Z</time>
      </trkpt>
      <trkpt lat="48.39447" lon="2.51718">
        <ele>94</ele>
        <time>2017-02-24T11:50:58Z</time>
      </trkpt>
      <trkpt lat="48.39446" lon="2.51724">
        <ele>94</ele>
        <time>2017-02-24T11:51:01Z</time>
      </trkpt>
      <trkpt lat="48.39442" lon="2.51738">
        <ele>97</ele>
        <time>2017-02-24T11:51:10Z</time>
      </trkpt>
      <trkpt lat="48.39444" lon="2.51745">
        <ele>98</ele>
        <time>2017-02-24T11:51:16Z</time>
      </trkpt>
      <trkpt lat="48.39445" lon="2.51753">
        <ele>99</ele>
        <time>2017-02-24T11:51:22Z</time>
      </trkpt>
      <trkpt lat="48.39441" lon="2.5176">
        <ele>100</ele>
        <time>2017-02-24T11:51:28Z</time>
      </trkpt>
      <trkpt lat="48.39434" lon="2.51769">
        <ele>100</ele>
        <time>2017-02-24T11:51:40Z</time>
      </trkpt>
      <trkpt lat="48.39429" lon="2.51782">
        <ele>101</ele>
        <time>2017-02-24T11:51:51Z</time>
      </trkpt>
      <trkpt lat="48.39426" lon="2.51795">
        <ele>102</ele>
        <time>2017-02-24T11:52:04Z</time>
      </trkpt>
      <trkpt lat="48.39428" lon="2.51818">
        <ele>105</ele>
        <time>2017-02-24T11:52:37Z</time>
      </trkpt>
      <trkpt lat="48.39431" lon="2.51823">
        <ele>106</ele>
        <time>2017-02-24T11:52:43Z</time>
      </trkpt>
      <trkpt lat="48.3943" lon="2.5183">
        <ele>107</ele>
        <time>2017-02-24T11:52:50Z</time>
      </trkpt>
      <trkpt lat="48.39427" lon="2.51836">
        <ele>108</ele>
        <time>2017-02-24T11:52:55Z</time>
      </trkpt>
      <trkpt lat="48.39424" lon="2.51842">
        <ele>109</ele>
        <time>2017-02-24T11:52:58Z</time>
      </trkpt>
      <trkpt lat="48.3942" lon="2.51846">
        <ele>110</ele>
        <time>2017-02-24T11:53:03Z</time>
      </trkpt>
      <trkpt lat="48.39418" lon="2.51853">
        <ele>110</ele>
        <time>2017-02-24T11:53:09Z</time>
      </trkpt>
      <trkpt lat="48.39416" lon="2.5186">
        <ele>110</ele>
        <time>2017-02-24T11:53:15Z</time>
      </trkpt>
      <trkpt lat="48.39417" lon="2.51869">
        <ele>110</ele>
        <time>2017-02-24T11:53:19Z</time>
      </trkpt>
      <trkpt lat="48.39416" lon="2.51877">
        <ele>111</ele>
        <time>2017-02-24T11:53:22Z</time>
      </trkpt>
      <trkpt lat="48.39408" lon="2.51891">
        <ele>111</ele>
        <time>2017-02-24T11:53:29Z</time>
      </trkpt>
      <trkpt lat="48.39405" lon="2.51903">
        <ele>111</ele>
        <time>2017-02-24T11:53:37Z</time>
      </trkpt>
      <trkpt lat="48.39404" lon="2.51918">
        <ele>111</ele>
        <time>2017-02-24T11:53:46Z</time>
      </trkpt>
      <trkpt lat="48.39399" lon="2.51931">
        <ele>111</ele>
        <time>2017-02-24T11:53:53Z</time>
      </trkpt>
      <trkpt lat="48.39395" lon="2.51944">
        <ele>111</ele>
        <time>2017-02-24T11:54:02Z</time>
      </trkpt>
      <trkpt lat="48.39394" lon="2.51959">
        <ele>111</ele>
        <time>2017-02-24T11:54:11Z</time>
      </trkpt>
      <trkpt lat="48.39398" lon="2.51971">
        <ele>111</ele>
        <time>2017-02-24T11:54:16Z</time>
      </trkpt>
      <trkpt lat="48.39398" lon="2.51994">
        <ele>111</ele>
        <time>2017-02-24T11:54:27Z</time>
      </trkpt>
      <trkpt lat="48.39393" lon="2.52006">
        <ele>112</ele>
        <time>2017-02-24T11:54:33Z</time>
      </trkpt>
      <trkpt lat="48.39392" lon="2.52014">
        <ele>112</ele>
        <time>2017-02-24T11:54:37Z</time>
      </trkpt>
      <trkpt lat="48.39391" lon="2.52022">
        <ele>111</ele>
        <time>2017-02-24T11:54:42Z</time>
      </trkpt>
      <trkpt lat="48.39387" lon="2.52027">
        <ele>111</ele>
        <time>2017-02-24T11:54:46Z</time>
      </trkpt>
      <trkpt lat="48.39384" lon="2.5204">
        <ele>112</ele>
        <time>2017-02-24T11:54:52Z</time>
      </trkpt>
      <trkpt lat="48.39377" lon="2.5205">
        <ele>112</ele>
        <time>2017-02-24T11:54:59Z</time>
      </trkpt>
      <trkpt lat="48.39373" lon="2.52054">
        <ele>112</ele>
        <time>2017-02-24T11:55:03Z</time>
      </trkpt>
      <trkpt lat="48.39373" lon="2.52061">
        <ele>112</ele>
        <time>2017-02-24T11:55:09Z</time>
      </trkpt>
      <trkpt lat="48.39367" lon="2.52074">
        <ele>113</ele>
        <time>2017-02-24T11:55:18Z</time>
      </trkpt>
      <trkpt lat="48.39368" lon="2.52082">
        <ele>113</ele>
        <time>2017-02-24T11:55:21Z</time>
      </trkpt>
      <trkpt lat="48.39366" lon="2.52103">
        <ele>113</ele>
        <time>2017-02-24T11:55:33Z</time>
      </trkpt>
      <trkpt lat="48.39348" lon="2.52133">
        <ele>112</ele>
        <time>2017-02-24T11:55:54Z</time>
      </trkpt>
      <trkpt lat="48.39338" lon="2.52146">
        <ele>112</ele>
        <time>2017-02-24T11:56:15Z</time>
      </trkpt>
      <trkpt lat="48.39333" lon="2.5216">
        <ele>112</ele>
        <time>2017-02-24T11:56:21Z</time>
      </trkpt>
      <trkpt lat="48.39334" lon="2.52173">
        <ele>112</ele>
        <time>2017-02-24T11:56:31Z</time>
      </trkpt>
      <trkpt lat="48.39339" lon="2.52184">
        <ele>111</ele>
        <time>2017-02-24T11:56:47Z</time>
      </trkpt>
      <trkpt lat="48.39336" lon="2.52197">
        <ele>111</ele>
        <time>2017-02-24T11:56:54Z</time>
      </trkpt>
      <trkpt lat="48.39318" lon="2.52219">
        <ele>112</ele>
        <time>2017-02-24T11:57:37Z</time>
      </trkpt>
      <trkpt lat="48.39305" lon="2.5223">
        <ele>110</ele>
        <time>2017-02-24T11:58:04Z</time>
      </trkpt>
      <trkpt lat="48.39297" lon="2.52223">
        <ele>108</ele>
        <time>2017-02-24T11:58:17Z</time>
      </trkpt>
      <trkpt lat="48.3929" lon="2.52213">
        <ele>105</ele>
        <time>2017-02-24T11:58:25Z</time>
      </trkpt>
      <trkpt lat="48.39282" lon="2.52209">
        <ele>103</ele>
        <time>2017-02-24T11:58:37Z</time>
      </trkpt>
      <trkpt lat="48.39274" lon="2.52201">
        <ele>102</ele>
        <time>2017-02-24T11:58:46Z</time>
      </trkpt>
      <trkpt lat="48.39264" lon="2.52204">
        <ele>100</ele>
        <time>2017-02-24T11:58:56Z</time>
      </trkpt>
      <trkpt lat="48.39256" lon="2.52211">
        <ele>100</ele>
        <time>2017-02-24T11:59:03Z</time>
      </trkpt>
      <trkpt lat="48.39255" lon="2.52225">
        <ele>97</ele>
        <time>2017-02-24T11:59:14Z</time>
      </trkpt>
      <trkpt lat="48.39249" lon="2.52236">
        <ele>96</ele>
        <time>2017-02-24T11:59:25Z</time>
      </trkpt>
      <trkpt lat="48.39245" lon="2.5225">
        <ele>92</ele>
        <time>2017-02-24T12:00:10Z</time>
      </trkpt>
      <trkpt lat="48.39245" lon="2.52264">
        <ele>91</ele>
        <time>2017-02-24T12:01:21Z</time>
      </trkpt>
      <trkpt lat="48.39246" lon="2.52277">
        <ele>91</ele>
        <time>2017-02-24T12:01:38Z</time>
      </trkpt>
      <trkpt lat="48.39237" lon="2.52288">
        <ele>91</ele>
        <time>2017-02-24T12:02:10Z</time>
      </trkpt>
      <trkpt lat="48.39234" lon="2.52305">
        <ele>91</ele>
        <time>2017-02-24T12:02:35Z</time>
      </trkpt>
      <trkpt lat="48.39233" lon="2.5232">
        <ele>93</ele>
        <time>2017-02-24T12:02:46Z</time>
      </trkpt>
      <trkpt lat="48.39226" lon="2.52335">
        <ele>96</ele>
        <time>2017-02-24T12:03:12Z</time>
      </trkpt>
      <trkpt lat="48.39216" lon="2.52343">
        <ele>99</ele>
        <time>2017-02-24T12:03:36Z</time>
      </trkpt>
      <trkpt lat="48.39207" lon="2.5234">
        <ele>99</ele>
        <time>2017-02-24T12:03:45Z</time>
      </trkpt>
      <trkpt lat="48.39198" lon="2.52346">
        <ele>99</ele>
        <time>2017-02-24T12:04:01Z</time>
      </trkpt>
      <trkpt lat="48.3919" lon="2.52355">
        <ele>100</ele>
        <time>2017-02-24T12:04:09Z</time>
      </trkpt>
      <trkpt lat="48.39182" lon="2.52365">
        <ele>107</ele>
        <time>2017-02-24T12:04:58Z</time>
      </trkpt>
      <trkpt lat="48.39175" lon="2.52374">
        <ele>107</ele>
        <time>2017-02-24T12:05:09Z</time>
      </trkpt>
      <trkpt lat="48.39168" lon="2.52377">
        <ele>109</ele>
        <time>2017-02-24T12:06:20Z</time>
      </trkpt>
      <trkpt lat="48.39163" lon="2.5238">
        <ele>110</ele>
        <time>2017-02-24T12:06:26Z</time>
      </trkpt>
      <trkpt lat="48.39161" lon="2.52387">
        <ele>110</ele>
        <time>2017-02-24T12:06:39Z</time>
      </trkpt>
      <trkpt lat="48.39153" lon="2.52392">
        <ele>111</ele>
        <time>2017-02-24T12:07:59Z</time>
      </trkpt>
      <trkpt lat="48.39149" lon="2.5239">
        <ele>112</ele>
        <time>2017-02-24T12:08:05Z</time>
      </trkpt>
      <trkpt lat="48.3914" lon="2.524">
        <ele>114</ele>
        <time>2017-02-24T12:08:13Z</time>
      </trkpt>
      <trkpt lat="48.39127" lon="2.524">
        <ele>118</ele>
        <time>2017-02-24T12:08:31Z</time>
      </trkpt>
      <trkpt lat="48.39118" lon="2.52393">
        <ele>118</ele>
        <time>2017-02-24T12:08:43Z</time>
      </trkpt>
      <trkpt lat="48.39109" lon="2.52387">
        <ele>117</ele>
        <time>2017-02-24T12:08:52Z</time>
      </trkpt>
      <trkpt lat="48.39099" lon="2.52387">
        <ele>117</ele>
        <time>2017-02-24T12:09:01Z</time>
      </trkpt>
      <trkpt lat="48.39092" lon="2.52377">
        <ele>117</ele>
        <time>2017-02-24T12:09:16Z</time>
      </trkpt>
      <trkpt lat="48.39086" lon="2.52373">
        <ele>117</ele>
        <time>2017-02-24T12:09:22Z</time>
      </trkpt>
      <trkpt lat="48.39082" lon="2.52369">
        <ele>117</ele>
        <time>2017-02-24T12:09:26Z</time>
      </trkpt>
      <trkpt lat="48.39077" lon="2.52368">
        <ele>117</ele>
        <time>2017-02-24T12:09:31Z</time>
      </trkpt>
      <trkpt lat="48.39072" lon="2.5237">
        <ele>117</ele>
        <time>2017-02-24T12:09:37Z</time>
      </trkpt>
      <trkpt lat="48.39071" lon="2.52377">
        <ele>117</ele>
        <time>2017-02-24T12:09:42Z</time>
      </trkpt>
      <trkpt lat="48.39068" lon="2.52383">
        <ele>118</ele>
        <time>2017-02-24T12:09:47Z</time>
      </trkpt>
      <trkpt lat="48.3906" lon="2.52394">
        <ele>118</ele>
        <time>2017-02-24T12:09:55Z</time>
      </trkpt>
      <trkpt lat="48.3906" lon="2.52401">
        <ele>118</ele>
        <time>2017-02-24T12:09:59Z</time>
      </trkpt>
      <trkpt lat="48.39058" lon="2.52406">
        <ele>117</ele>
        <time>2017-02-24T12:10:06Z</time>
      </trkpt>
      <trkpt lat="48.39053" lon="2.52408">
        <ele>117</ele>
        <time>2017-02-24T12:10:18Z</time>
      </trkpt>
      <trkpt lat="48.39051" lon="2.52415">
        <ele>118</ele>
        <time>2017-02-24T12:10:23Z</time>
      </trkpt>
      <trkpt lat="48.39043" lon="2.52422">
        <ele>118</ele>
        <time>2017-02-24T12:10:33Z</time>
      </trkpt>
      <trkpt lat="48.39033" lon="2.52421">
        <ele>119</ele>
        <time>2017-02-24T12:10:44Z</time>
      </trkpt>
      <trkpt lat="48.3903" lon="2.52416">
        <ele>118</ele>
        <time>2017-02-24T12:10:52Z</time>
      </trkpt>
      <trkpt lat="48.39027" lon="2.52422">
        <ele>117</ele>
        <time>2017-02-24T12:12:24Z</time>
      </trkpt>
      <trkpt lat="48.39024" lon="2.52433">
        <ele>114</ele>
        <time>2017-02-24T12:12:37Z</time>
      </trkpt>
      <trkpt lat="48.39027" lon="2.52439">
        <ele>113</ele>
        <time>2017-02-24T12:12:41Z</time>
      </trkpt>
      <trkpt lat="48.39032" lon="2.52452">
        <ele>113</ele>
        <time>2017-02-24T12:12:50Z</time>
      </trkpt>
      <trkpt lat="48.39033" lon="2.52459">
        <ele>114</ele>
        <time>2017-02-24T12:12:54Z</time>
      </trkpt>
      <trkpt lat="48.39035" lon="2.52465">
        <ele>114</ele>
        <time>2017-02-24T12:13:01Z</time>
      </trkpt>
      <trkpt lat="48.39033" lon="2.5248">
        <ele>114</ele>
        <time>2017-02-24T12:13:17Z</time>
      </trkpt>
      <trkpt lat="48.39035" lon="2.52487">
        <ele>114</ele>
        <time>2017-02-24T12:13:21Z</time>
      </trkpt>
      <trkpt lat="48.3904" lon="2.525">
        <ele>115</ele>
        <time>2017-02-24T12:13:30Z</time>
      </trkpt>
      <trkpt lat="48.39042" lon="2.52506">
        <ele>116</ele>
        <time>2017-02-24T12:13:34Z</time>
      </trkpt>
      <trkpt lat="48.39046" lon="2.52511">
        <ele>116</ele>
        <time>2017-02-24T12:13:39Z</time>
      </trkpt>
      <trkpt lat="48.39044" lon="2.52518">
        <ele>117</ele>
        <time>2017-02-24T12:13:44Z</time>
      </trkpt>
      <trkpt lat="48.39041" lon="2.52524">
        <ele>117</ele>
        <time>2017-02-24T12:13:49Z</time>
      </trkpt>
      <trkpt lat="48.3904" lon="2.52538">
        <ele>117</ele>
        <time>2017-02-24T12:13:59Z</time>
      </trkpt>
      <trkpt lat="48.39038" lon="2.52545">
        <ele>118</ele>
        <time>2017-02-24T12:14:04Z</time>
      </trkpt>
      <trkpt lat="48.39027" lon="2.52561">
        <ele>118</ele>
        <time>2017-02-24T12:14:20Z</time>
      </trkpt>
      <trkpt lat="48.39025" lon="2.52567">
        <ele>117</ele>
        <time>2017-02-24T12:14:26Z</time>
      </trkpt>
      <trkpt lat="48.39023" lon="2.52581">
        <ele>116</ele>
        <time>2017-02-24T12:14:35Z</time>
      </trkpt>
      <trkpt lat="48.39019" lon="2.52594">
        <ele>116</ele>
        <time>2017-02-24T12:14:59Z</time>
      </trkpt>
      <trkpt lat="48.3902" lon="2.526">
        <ele>115</ele>
        <time>2017-02-24T12:15:04Z</time>
      </trkpt>
      <trkpt lat="48.39017" lon="2.52614">
        <ele>115</ele>
        <time>2017-02-24T12:15:17Z</time>
      </trkpt>
      <trkpt lat="48.39018" lon="2.52621">
        <ele>115</ele>
        <time>2017-02-24T12:15:22Z</time>
      </trkpt>
      <trkpt lat="48.39015" lon="2.52643">
        <ele>116</ele>
        <time>2017-02-24T12:15:34Z</time>
      </trkpt>
      <trkpt lat="48.39019" lon="2.52648">
        <ele>116</ele>
        <time>2017-02-24T12:15:39Z</time>
      </trkpt>
      <trkpt lat="48.39017" lon="2.52654">
        <ele>117</ele>
        <time>2017-02-24T12:15:43Z</time>
      </trkpt>
      <trkpt lat="48.39017" lon="2.52661">
        <ele>117</ele>
        <time>2017-02-24T12:15:48Z</time>
      </trkpt>
      <trkpt lat="48.39021" lon="2.52666">
        <ele>116</ele>
        <time>2017-02-24T12:15:52Z</time>
      </trkpt>
      <trkpt lat="48.39021" lon="2.52683">
        <ele>116</ele>
        <time>2017-02-24T12:16:01Z</time>
      </trkpt>
      <trkpt lat="48.39021" lon="2.52689">
        <ele>116</ele>
        <time>2017-02-24T12:16:05Z</time>
      </trkpt>
      <trkpt lat="48.39023" lon="2.52696">
        <ele>116</ele>
        <time>2017-02-24T12:16:08Z</time>
      </trkpt>
      <trkpt lat="48.39022" lon="2.52703">
        <ele>115</ele>
        <time>2017-02-24T12:16:14Z</time>
      </trkpt>
      <trkpt lat="48.3902" lon="2.5271">
        <ele>115</ele>
        <time>2017-02-24T12:16:21Z</time>
      </trkpt>
      <trkpt lat="48.39016" lon="2.52717">
        <ele>117</ele>
        <time>2017-02-24T12:16:53Z</time>
      </trkpt>
      <trkpt lat="48.39016" lon="2.5273">
        <ele>117</ele>
        <time>2017-02-24T12:17:35Z</time>
      </trkpt>
      <trkpt lat="48.39024" lon="2.5274">
        <ele>113</ele>
        <time>2017-02-24T12:17:54Z</time>
      </trkpt>
      <trkpt lat="48.39027" lon="2.52747">
        <ele>113</ele>
        <time>2017-02-24T12:18:00Z</time>
      </trkpt>
      <trkpt lat="48.3903" lon="2.52752">
        <ele>114</ele>
        <time>2017-02-24T12:18:05Z</time>
      </trkpt>
      <trkpt lat="48.39033" lon="2.52757">
        <ele>114</ele>
        <time>2017-02-24T12:18:11Z</time>
      </trkpt>
      <trkpt lat="48.39032" lon="2.52772">
        <ele>114</ele>
        <time>2017-02-24T12:18:23Z</time>
      </trkpt>
      <trkpt lat="48.39033" lon="2.52779">
        <ele>113</ele>
        <time>2017-02-24T12:18:32Z</time>
      </trkpt>
      <trkpt lat="48.39038" lon="2.52793">
        <ele>111</ele>
        <time>2017-02-24T12:18:44Z</time>
      </trkpt>
      <trkpt lat="48.39036" lon="2.52799">
        <ele>111</ele>
        <time>2017-02-24T12:18:47Z</time>
      </trkpt>
      <trkpt lat="48.39028" lon="2.52811">
        <ele>110</ele>
        <time>2017-02-24T12:18:54Z</time>
      </trkpt>
      <trkpt lat="48.39024" lon="2.52833">
        <ele>109</ele>
        <time>2017-02-24T12:19:08Z</time>
      </trkpt>
      <trkpt lat="48.39016" lon="2.52841">
        <ele>109</ele>
        <time>2017-02-24T12:19:16Z</time>
      </trkpt>
      <trkpt lat="48.3901" lon="2.52853">
        <ele>108</ele>
        <time>2017-02-24T12:19:27Z</time>
      </trkpt>
      <trkpt lat="48.39007" lon="2.52866">
        <ele>106</ele>
        <time>2017-02-24T12:19:37Z</time>
      </trkpt>
      <trkpt lat="48.39001" lon="2.52876">
        <ele>105</ele>
        <time>2017-02-24T12:19:44Z</time>
      </trkpt>
      <trkpt lat="48.38979" lon="2.52898">
        <ele>97</ele>
        <time>2017-02-24T12:20:28Z</time>
      </trkpt>
      <trkpt lat="48.3897" lon="2.52898">
        <ele>97</ele>
        <time>2017-02-24T12:20:35Z</time>
      </trkpt>
      <trkpt lat="48.38961" lon="2.52903">
        <ele>97</ele>
        <time>2017-02-24T12:20:45Z</time>
      </trkpt>
      <trkpt lat="48.38952" lon="2.529">
        <ele>97</ele>
        <time>2017-02-24T12:20:53Z</time>
      </trkpt>
      <trkpt lat="48.38943" lon="2.52903">
        <ele>97</ele>
        <time>2017-02-24T12:21:04Z</time>
      </trkpt>
      <trkpt lat="48.38933" lon="2.52905">
        <ele>96</ele>
        <time>2017-02-24T12:21:14Z</time>
      </trkpt>
      <trkpt lat="48.38916" lon="2.5292">
        <ele>96</ele>
        <time>2017-02-24T12:21:32Z</time>
      </trkpt>
      <trkpt lat="48.38904" lon="2.52941">
        <ele>95</ele>
        <time>2017-02-24T12:21:49Z</time>
      </trkpt>
      <trkpt lat="48.38902" lon="2.52962">
        <ele>91</ele>
        <time>2017-02-24T12:23:07Z</time>
      </trkpt>
      <trkpt lat="48.3889" lon="2.52962">
        <ele>90</ele>
        <time>2017-02-24T12:23:35Z</time>
      </trkpt>
      <trkpt lat="48.38886" lon="2.52974">
        <ele>90</ele>
        <time>2017-02-24T12:24:35Z</time>
      </trkpt>
      <trkpt lat="48.38877" lon="2.5297">
        <ele>94</ele>
        <time>2017-02-24T12:25:18Z</time>
      </trkpt>
      <trkpt lat="48.38873" lon="2.52982">
        <ele>96</ele>
        <time>2017-02-24T12:25:43Z</time>
      </trkpt>
      <trkpt lat="48.38868" lon="2.52989">
        <ele>105</ele>
        <time>2017-02-24T12:26:20Z</time>
      </trkpt>
      <trkpt lat="48.38864" lon="2.52994">
        <ele>106</ele>
        <time>2017-02-24T12:26:26Z</time>
      </trkpt>
      <trkpt lat="48.38867" lon="2.52999">
        <ele>107</ele>
        <time>2017-02-24T12:26:34Z</time>
      </trkpt>
      <trkpt lat="48.38861" lon="2.53">
        <ele>108</ele>
        <time>2017-02-24T12:27:05Z</time>
      </trkpt>
      <trkpt lat="48.38863" lon="2.52996">
        <ele>108</ele>
        <time>2017-02-24T12:50:16Z</time>
      </trkpt>
      <trkpt lat="48.38859" lon="2.52992">
        <ele>108</ele>
        <time>2017-02-24T12:50:37Z</time>
      </trkpt>
      <trkpt lat="48.38859" lon="2.52998">
        <ele>106</ele>
        <time>2017-02-24T12:57:37Z</time>
      </trkpt>
      <trkpt lat="48.38866" lon="2.52995">
        <ele>106</ele>
        <time>2017-02-24T13:02:46Z</time>
      </trkpt>
      <trkpt lat="48.38871" lon="2.52997">
        <ele>104</ele>
        <time>2017-02-24T13:03:19Z</time>
      </trkpt>
      <trkpt lat="48.38877" lon="2.53004">
        <ele>101</ele>
        <time>2017-02-24T13:03:43Z</time>
      </trkpt>
      <trkpt lat="48.38879" lon="2.53011">
        <ele>101</ele>
        <time>2017-02-24T13:04:06Z</time>
      </trkpt>
      <trkpt lat="48.38881" lon="2.53018">
        <ele>98</ele>
        <time>2017-02-24T13:04:15Z</time>
      </trkpt>
      <trkpt lat="48.38881" lon="2.53027">
        <ele>96</ele>
        <time>2017-02-24T13:04:32Z</time>
      </trkpt>
      <trkpt lat="48.38886" lon="2.53029">
        <ele>93</ele>
        <time>2017-02-24T13:04:53Z</time>
      </trkpt>
      <trkpt lat="48.38887" lon="2.53036">
        <ele>93</ele>
        <time>2017-02-24T13:05:01Z</time>
      </trkpt>
      <trkpt lat="48.38889" lon="2.53042">
        <ele>92</ele>
        <time>2017-02-24T13:05:08Z</time>
      </trkpt>
      <trkpt lat="48.38894" lon="2.53044">
        <ele>91</ele>
        <time>2017-02-24T13:05:12Z</time>
      </trkpt>
      <trkpt lat="48.38899" lon="2.53044">
        <ele>90</ele>
        <time>2017-02-24T13:05:19Z</time>
      </trkpt>
      <trkpt lat="48.38902" lon="2.5305">
        <ele>88</ele>
        <time>2017-02-24T13:05:37Z</time>
      </trkpt>
      <trkpt lat="48.3891" lon="2.53059">
        <ele>87</ele>
        <time>2017-02-24T13:06:05Z</time>
      </trkpt>
      <trkpt lat="48.38926" lon="2.53072">
        <ele>88</ele>
        <time>2017-02-24T13:06:33Z</time>
      </trkpt>
      <trkpt lat="48.38932" lon="2.53083">
        <ele>88</ele>
        <time>2017-02-24T13:06:40Z</time>
      </trkpt>
      <trkpt lat="48.38935" lon="2.53097">
        <ele>88</ele>
        <time>2017-02-24T13:06:50Z</time>
      </trkpt>
      <trkpt lat="48.38933" lon="2.53118">
        <ele>88</ele>
        <time>2017-02-24T13:07:27Z</time>
      </trkpt>
      <trkpt lat="48.38933" lon="2.53127">
        <ele>88</ele>
        <time>2017-02-24T13:07:59Z</time>
      </trkpt>
      <trkpt lat="48.3894" lon="2.53136">
        <ele>90</ele>
        <time>2017-02-24T13:08:37Z</time>
      </trkpt>
      <trkpt lat="48.38944" lon="2.53154">
        <ele>95</ele>
        <time>2017-02-24T13:09:17Z</time>
      </trkpt>
      <trkpt lat="48.38942" lon="2.53171">
        <ele>99</ele>
        <time>2017-02-24T13:09:53Z</time>
      </trkpt>
      <trkpt lat="48.38942" lon="2.53187">
        <ele>101</ele>
        <time>2017-02-24T13:10:43Z</time>
      </trkpt>
      <trkpt lat="48.38951" lon="2.53194">
        <ele>104</ele>
        <time>2017-02-24T13:11:31Z</time>
      </trkpt>
      <trkpt lat="48.38956" lon="2.53197">
        <ele>104</ele>
        <time>2017-02-24T13:11:48Z</time>
      </trkpt>
      <trkpt lat="48.38955" lon="2.53205">
        <ele>103</ele>
        <time>2017-02-24T13:11:57Z</time>
      </trkpt>
      <trkpt lat="48.38958" lon="2.5321">
        <ele>103</ele>
        <time>2017-02-24T13:12:02Z</time>
      </trkpt>
      <trkpt lat="48.38962" lon="2.53214">
        <ele>102</ele>
        <time>2017-02-24T13:12:07Z</time>
      </trkpt>
      <trkpt lat="48.38966" lon="2.53218">
        <ele>102</ele>
        <time>2017-02-24T13:12:11Z</time>
      </trkpt>
      <trkpt lat="48.38971" lon="2.53221">
        <ele>101</ele>
        <time>2017-02-24T13:12:15Z</time>
      </trkpt>
      <trkpt lat="48.38974" lon="2.53227">
        <ele>101</ele>
        <time>2017-02-24T13:12:19Z</time>
      </trkpt>
      <trkpt lat="48.38973" lon="2.53234">
        <ele>101</ele>
        <time>2017-02-24T13:12:24Z</time>
      </trkpt>
      <trkpt lat="48.38975" lon="2.5324">
        <ele>100</ele>
        <time>2017-02-24T13:12:30Z</time>
      </trkpt>
      <trkpt lat="48.38975" lon="2.53252">
        <ele>101</ele>
        <time>2017-02-24T13:12:57Z</time>
      </trkpt>
      <trkpt lat="48.38979" lon="2.53262">
        <ele>100</ele>
        <time>2017-02-24T13:13:19Z</time>
      </trkpt>
      <trkpt lat="48.38974" lon="2.53277">
        <ele>98</ele>
        <time>2017-02-24T13:13:52Z</time>
      </trkpt>
      <trkpt lat="48.38979" lon="2.53279">
        <ele>98</ele>
        <time>2017-02-24T13:13:58Z</time>
      </trkpt>
      <trkpt lat="48.38982" lon="2.53284">
        <ele>98</ele>
        <time>2017-02-24T13:14:23Z</time>
      </trkpt>
      <trkpt lat="48.38986" lon="2.5328">
        <ele>98</ele>
        <time>2017-02-24T13:14:35Z</time>
      </trkpt>
      <trkpt lat="48.38997" lon="2.53272">
        <ele>103</ele>
        <time>2017-02-24T13:18:20Z</time>
      </trkpt>
      <trkpt lat="48.39" lon="2.53285">
        <ele>104</ele>
        <time>2017-02-24T13:19:49Z</time>
      </trkpt>
      <trkpt lat="48.39003" lon="2.53299">
        <ele>107</ele>
        <time>2017-02-24T13:21:13Z</time>
      </trkpt>
      <trkpt lat="48.39017" lon="2.53305">
        <ele>107</ele>
        <time>2017-02-24T13:22:03Z</time>
      </trkpt>
      <trkpt lat="48.39018" lon="2.5332">
        <ele>111</ele>
        <time>2017-02-24T13:22:55Z</time>
      </trkpt>
      <trkpt lat="48.3902" lon="2.53346">
        <ele>118</ele>
        <time>2017-02-24T13:24:00Z</time>
      </trkpt>
      <trkpt lat="48.39019" lon="2.5336">
        <ele>120</ele>
        <time>2017-02-24T13:24:14Z</time>
      </trkpt>
      <trkpt lat="48.39022" lon="2.53368">
        <ele>119</ele>
        <time>2017-02-24T13:24:22Z</time>
      </trkpt>
      <trkpt lat="48.39022" lon="2.53375">
        <ele>117</ele>
        <time>2017-02-24T13:24:31Z</time>
      </trkpt>
      <trkpt lat="48.39017" lon="2.5338">
        <ele>117</ele>
        <time>2017-02-24T13:24:50Z</time>
      </trkpt>
      <trkpt lat="48.39019" lon="2.53387">
        <ele>117</ele>
        <time>2017-02-24T13:24:56Z</time>
      </trkpt>
      <trkpt lat="48.39018" lon="2.53395">
        <ele>117</ele>
        <time>2017-02-24T13:25:01Z</time>
      </trkpt>
      <trkpt lat="48.39022" lon="2.53411">
        <ele>117</ele>
        <time>2017-02-24T13:25:10Z</time>
      </trkpt>
      <trkpt lat="48.39025" lon="2.53417">
        <ele>118</ele>
        <time>2017-02-24T13:25:14Z</time>
      </trkpt>
      <trkpt lat="48.39029" lon="2.5342">
        <ele>118</ele>
        <time>2017-02-24T13:25:18Z</time>
      </trkpt>
      <trkpt lat="48.39035" lon="2.53426">
        <ele>119</ele>
        <time>2017-02-24T13:25:29Z</time>
      </trkpt>
      <trkpt lat="48.39036" lon="2.53433">
        <ele>119</ele>
        <time>2017-02-24T13:25:33Z</time>
      </trkpt>
      <trkpt lat="48.3904" lon="2.53438">
        <ele>119</ele>
        <time>2017-02-24T13:25:37Z</time>
      </trkpt>
      <trkpt lat="48.39043" lon="2.53451">
        <ele>119</ele>
        <time>2017-02-24T13:25:46Z</time>
      </trkpt>
      <trkpt lat="48.39051" lon="2.53462">
        <ele>119</ele>
        <time>2017-02-24T13:25:55Z</time>
      </trkpt>
      <trkpt lat="48.39048" lon="2.53475">
        <ele>119</ele>
        <time>2017-02-24T13:26:01Z</time>
      </trkpt>
      <trkpt lat="48.39041" lon="2.53485">
        <ele>119</ele>
        <time>2017-02-24T13:26:09Z</time>
      </trkpt>
      <trkpt lat="48.39024" lon="2.53502">
        <ele>118</ele>
        <time>2017-02-24T13:26:21Z</time>
      </trkpt>
      <trkpt lat="48.39019" lon="2.53514">
        <ele>118</ele>
        <time>2017-02-24T13:26:26Z</time>
      </trkpt>
      <trkpt lat="48.3902" lon="2.53527">
        <ele>118</ele>
        <time>2017-02-24T13:26:31Z</time>
      </trkpt>
      <trkpt lat="48.39015" lon="2.53539">
        <ele>118</ele>
        <time>2017-02-24T13:26:44Z</time>
      </trkpt>
      <trkpt lat="48.39001" lon="2.53543">
        <ele>119</ele>
        <time>2017-02-24T13:27:53Z</time>
      </trkpt>
      <trkpt lat="48.38998" lon="2.53539">
        <ele>119</ele>
        <time>2017-02-24T13:28:00Z</time>
      </trkpt>
      <trkpt lat="48.38992" lon="2.53542">
        <ele>119</ele>
        <time>2017-02-24T13:28:06Z</time>
      </trkpt>
      <trkpt lat="48.38986" lon="2.53543">
        <ele>121</ele>
        <time>2017-02-24T13:28:30Z</time>
      </trkpt>
      <trkpt lat="48.38978" lon="2.53553">
        <ele>120</ele>
        <time>2017-02-24T13:31:35Z</time>
      </trkpt>
      <trkpt lat="48.38969" lon="2.53564">
        <ele>119</ele>
        <time>2017-02-24T13:32:28Z</time>
      </trkpt>
      <trkpt lat="48.38964" lon="2.53584">
        <ele>119</ele>
        <time>2017-02-24T13:33:27Z</time>
      </trkpt>
      <trkpt lat="48.38953" lon="2.53604">
        <ele>118</ele>
        <time>2017-02-24T13:34:22Z</time>
      </trkpt>
      <trkpt lat="48.38944" lon="2.53604">
        <ele>117</ele>
        <time>2017-02-24T13:34:31Z</time>
      </trkpt>
      <trkpt lat="48.38935" lon="2.53606">
        <ele>118</ele>
        <time>2017-02-24T13:34:41Z</time>
      </trkpt>
      <trkpt lat="48.38927" lon="2.53614">
        <ele>118</ele>
        <time>2017-02-24T13:34:58Z</time>
      </trkpt>
      <trkpt lat="48.3892" lon="2.53603">
        <ele>119</ele>
        <time>2017-02-24T13:35:25Z</time>
      </trkpt>
      <trkpt lat="48.38911" lon="2.53608">
        <ele>122</ele>
        <time>2017-02-24T13:36:51Z</time>
      </trkpt>
      <trkpt lat="48.38904" lon="2.53618">
        <ele>122</ele>
        <time>2017-02-24T13:37:03Z</time>
      </trkpt>
      <trkpt lat="48.389" lon="2.53632">
        <ele>124</ele>
        <time>2017-02-24T13:37:13Z</time>
      </trkpt>
      <trkpt lat="48.38892" lon="2.53639">
        <ele>125</ele>
        <time>2017-02-24T13:37:29Z</time>
      </trkpt>
      <trkpt lat="48.38884" lon="2.5363">
        <ele>125</ele>
        <time>2017-02-24T13:37:47Z</time>
      </trkpt>
      <trkpt lat="48.38871" lon="2.53626">
        <ele>122</ele>
        <time>2017-02-24T13:38:23Z</time>
      </trkpt>
      <trkpt lat="48.38846" lon="2.53671">
        <ele>120</ele>
        <time>2017-02-24T13:38:57Z</time>
      </trkpt>
      <trkpt lat="48.38837" lon="2.53671">
        <ele>119</ele>
        <time>2017-02-24T13:39:10Z</time>
      </trkpt>
      <trkpt lat="48.38828" lon="2.53664">
        <ele>118</ele>
        <time>2017-02-24T13:39:19Z</time>
      </trkpt>
      <trkpt lat="48.38823" lon="2.53651">
        <ele>119</ele>
        <time>2017-02-24T13:39:27Z</time>
      </trkpt>
      <trkpt lat="48.38811" lon="2.53638">
        <ele>120</ele>
        <time>2017-02-24T13:39:39Z</time>
      </trkpt>
      <trkpt lat="48.38807" lon="2.53632">
        <ele>119</ele>
        <time>2017-02-24T13:39:43Z</time>
      </trkpt>
      <trkpt lat="48.38804" lon="2.53626">
        <ele>120</ele>
        <time>2017-02-24T13:39:47Z</time>
      </trkpt>
      <trkpt lat="48.38799" lon="2.53625">
        <ele>120</ele>
        <time>2017-02-24T13:39:51Z</time>
      </trkpt>
      <trkpt lat="48.38795" lon="2.53626">
        <ele>119</ele>
        <time>2017-02-24T13:39:55Z</time>
      </trkpt>
      <trkpt lat="48.38794" lon="2.5362">
        <ele>119</ele>
        <time>2017-02-24T13:40:00Z</time>
      </trkpt>
      <trkpt lat="48.38796" lon="2.53614">
        <ele>119</ele>
        <time>2017-02-24T13:40:04Z</time>
      </trkpt>
      <trkpt lat="48.38793" lon="2.5362">
        <ele>118</ele>
        <time>2017-02-24T13:40:59Z</time>
      </trkpt>
      <trkpt lat="48.38783" lon="2.53623">
        <ele>118</ele>
        <time>2017-02-24T13:41:25Z</time>
      </trkpt>
      <trkpt lat="48.3877" lon="2.53633">
        <ele>116</ele>
        <time>2017-02-24T13:42:10Z</time>
      </trkpt>
      <trkpt lat="48.38757" lon="2.5364">
        <ele>108</ele>
        <time>2017-02-24T13:43:09Z</time>
      </trkpt>
      <trkpt lat="48.38747" lon="2.53641">
        <ele>103</ele>
        <time>2017-02-24T13:43:38Z</time>
      </trkpt>
      <trkpt lat="48.38727" lon="2.53641">
        <ele>100</ele>
        <time>2017-02-24T13:44:33Z</time>
      </trkpt>
      <trkpt lat="48.38718" lon="2.53638">
        <ele>99</ele>
        <time>2017-02-24T13:44:40Z</time>
      </trkpt>
      <trkpt lat="48.38711" lon="2.53629">
        <ele>97</ele>
        <time>2017-02-24T13:44:51Z</time>
      </trkpt>
      <trkpt lat="48.38697" lon="2.5364">
        <ele>94</ele>
        <time>2017-02-24T13:46:11Z</time>
      </trkpt>
      <trkpt lat="48.387" lon="2.53643">
        <ele>91</ele>
        <time>2017-02-24T13:48:51Z</time>
      </trkpt>
      <trkpt lat="48.38696" lon="2.53649">
        <ele>91</ele>
        <time>2017-02-24T13:48:59Z</time>
      </trkpt>
      <trkpt lat="48.38693" lon="2.53656">
        <ele>90</ele>
        <time>2017-02-24T13:49:28Z</time>
      </trkpt>
      <trkpt lat="48.38689" lon="2.53668">
        <ele>90</ele>
        <time>2017-02-24T13:49:53Z</time>
      </trkpt>
      <trkpt lat="48.38683" lon="2.53689">
        <ele>92</ele>
        <time>2017-02-24T13:50:42Z</time>
      </trkpt>
      <trkpt lat="48.3867" lon="2.53683">
        <ele>91</ele>
        <time>2017-02-24T13:51:17Z</time>
      </trkpt>
      <trkpt lat="48.38661" lon="2.53686">
        <ele>98</ele>
        <time>2017-02-24T13:51:33Z</time>
      </trkpt>
      <trkpt lat="48.38662" lon="2.53702">
        <ele>100</ele>
        <time>2017-02-24T13:51:53Z</time>
      </trkpt>
      <trkpt lat="48.38666" lon="2.53714">
        <ele>101</ele>
        <time>2017-02-24T13:52:09Z</time>
      </trkpt>
      <trkpt lat="48.38666" lon="2.53728">
        <ele>100</ele>
        <time>2017-02-24T13:52:17Z</time>
      </trkpt>
      <trkpt lat="48.38657" lon="2.53735">
        <ele>100</ele>
        <time>2017-02-24T13:52:24Z</time>
      </trkpt>
      <trkpt lat="48.38648" lon="2.53733">
        <ele>101</ele>
        <time>2017-02-24T13:52:47Z</time>
      </trkpt>
      <trkpt lat="48.3864" lon="2.53741">
        <ele>105</ele>
        <time>2017-02-24T13:53:45Z</time>
      </trkpt>
      <trkpt lat="48.38627" lon="2.53745">
        <ele>107</ele>
        <time>2017-02-24T13:54:18Z</time>
      </trkpt>
      <trkpt lat="48.38618" lon="2.53755">
        <ele>111</ele>
        <time>2017-02-24T13:54:51Z</time>
      </trkpt>
      <trkpt lat="48.38602" lon="2.53763">
        <ele>111</ele>
        <time>2017-02-24T13:55:23Z</time>
      </trkpt>
      <trkpt lat="48.38605" lon="2.53777">
        <ele>109</ele>
        <time>2017-02-24T13:57:02Z</time>
      </trkpt>
      <trkpt lat="48.38596" lon="2.53779">
        <ele>109</ele>
        <time>2017-02-24T13:57:11Z</time>
      </trkpt>
      <trkpt lat="48.38583" lon="2.53792">
        <ele>112</ele>
        <time>2017-02-24T13:57:46Z</time>
      </trkpt>
      <trkpt lat="48.38579" lon="2.53793">
        <ele>113</ele>
        <time>2017-02-24T13:57:55Z</time>
      </trkpt>
      <trkpt lat="48.38575" lon="2.53798">
        <ele>113</ele>
        <time>2017-02-24T13:58:03Z</time>
      </trkpt>
      <trkpt lat="48.38572" lon="2.53805">
        <ele>113</ele>
        <time>2017-02-24T13:58:12Z</time>
      </trkpt>
      <trkpt lat="48.38568" lon="2.53809">
        <ele>113</ele>
        <time>2017-02-24T13:58:17Z</time>
      </trkpt>
      <trkpt lat="48.38566" lon="2.53815">
        <ele>114</ele>
        <time>2017-02-24T13:58:23Z</time>
      </trkpt>
      <trkpt lat="48.38559" lon="2.5382">
        <ele>114</ele>
        <time>2017-02-24T13:58:34Z</time>
      </trkpt>
      <trkpt lat="48.38555" lon="2.53825">
        <ele>114</ele>
        <time>2017-02-24T13:58:40Z</time>
      </trkpt>
      <trkpt lat="48.3855" lon="2.53829">
        <ele>114</ele>
        <time>2017-02-24T13:58:48Z</time>
      </trkpt>
      <trkpt lat="48.38546" lon="2.53832">
        <ele>115</ele>
        <time>2017-02-24T13:59:07Z</time>
      </trkpt>
      <trkpt lat="48.38541" lon="2.53834">
        <ele>116</ele>
        <time>2017-02-24T13:59:23Z</time>
      </trkpt>
      <trkpt lat="48.38537" lon="2.53838">
        <ele>116</ele>
        <time>2017-02-24T13:59:44Z</time>
      </trkpt>
      <trkpt lat="48.38534" lon="2.53832">
        <ele>115</ele>
        <time>2017-02-24T13:59:52Z</time>
      </trkpt>
      <trkpt lat="48.38529" lon="2.5383">
        <ele>115</ele>
        <time>2017-02-24T13:59:57Z</time>
      </trkpt>
      <trkpt lat="48.38519" lon="2.53828">
        <ele>116</ele>
        <time>2017-02-24T14:00:09Z</time>
      </trkpt>
      <trkpt lat="48.38515" lon="2.53831">
        <ele>116</ele>
        <time>2017-02-24T14:00:18Z</time>
      </trkpt>
      <trkpt lat="48.38509" lon="2.53831">
        <ele>116</ele>
        <time>2017-02-24T14:00:23Z</time>
      </trkpt>
      <trkpt lat="48.38505" lon="2.53828">
        <ele>116</ele>
        <time>2017-02-24T14:00:29Z</time>
      </trkpt>
      <trkpt lat="48.385" lon="2.53823">
        <ele>116</ele>
        <time>2017-02-24T14:00:44Z</time>
      </trkpt>
      <trkpt lat="48.38491" lon="2.53824">
        <ele>118</ele>
        <time>2017-02-24T14:01:38Z</time>
      </trkpt>
      <trkpt lat="48.38488" lon="2.53829">
        <ele>118</ele>
        <time>2017-02-24T14:01:42Z</time>
      </trkpt>
      <trkpt lat="48.38483" lon="2.5383">
        <ele>118</ele>
        <time>2017-02-24T14:01:46Z</time>
      </trkpt>
      <trkpt lat="48.38484" lon="2.53837">
        <ele>117</ele>
        <time>2017-02-24T14:02:02Z</time>
      </trkpt>
      <trkpt lat="48.38484" lon="2.53844">
        <ele>117</ele>
        <time>2017-02-24T14:02:11Z</time>
      </trkpt>
      <trkpt lat="48.38483" lon="2.53851">
        <ele>117</ele>
        <time>2017-02-24T14:02:20Z</time>
      </trkpt>
      <trkpt lat="48.38478" lon="2.53857">
        <ele>116</ele>
        <time>2017-02-24T14:02:33Z</time>
      </trkpt>
      <trkpt lat="48.38479" lon="2.53867">
        <ele>116</ele>
        <time>2017-02-24T14:03:09Z</time>
      </trkpt>
      <trkpt lat="48.38473" lon="2.53865">
        <ele>116</ele>
        <time>2017-02-24T14:05:55Z</time>
      </trkpt>
      <trkpt lat="48.38468" lon="2.5387">
        <ele>115</ele>
        <time>2017-02-24T14:07:10Z</time>
      </trkpt>
      <trkpt lat="48.38464" lon="2.53875">
        <ele>109</ele>
        <time>2017-02-24T14:07:19Z</time>
      </trkpt>
      <trkpt lat="48.38468" lon="2.53888">
        <ele>106</ele>
        <time>2017-02-24T14:07:35Z</time>
      </trkpt>
      <trkpt lat="48.3847" lon="2.53894">
        <ele>107</ele>
        <time>2017-02-24T14:07:44Z</time>
      </trkpt>
      <trkpt lat="48.38461" lon="2.53902">
        <ele>106</ele>
        <time>2017-02-24T14:07:55Z</time>
      </trkpt>
      <trkpt lat="48.38466" lon="2.53909">
        <ele>107</ele>
        <time>2017-02-24T14:08:18Z</time>
      </trkpt>
      <trkpt lat="48.38474" lon="2.53924">
        <ele>109</ele>
        <time>2017-02-24T14:09:14Z</time>
      </trkpt>
      <trkpt lat="48.38465" lon="2.53925">
        <ele>109</ele>
        <time>2017-02-24T14:09:22Z</time>
      </trkpt>
      <trkpt lat="48.38461" lon="2.53936">
        <ele>110</ele>
        <time>2017-02-24T14:09:50Z</time>
      </trkpt>
      <trkpt lat="48.38475" lon="2.53947">
        <ele>109</ele>
        <time>2017-02-24T14:10:16Z</time>
      </trkpt>
      <trkpt lat="48.38468" lon="2.53947">
        <ele>111</ele>
        <time>2017-02-24T14:11:13Z</time>
      </trkpt>
      <trkpt lat="48.38466" lon="2.53962">
        <ele>112</ele>
        <time>2017-02-24T14:11:37Z</time>
      </trkpt>
      <trkpt lat="48.38454" lon="2.53958">
        <ele>116</ele>
        <time>2017-02-24T14:13:00Z</time>
      </trkpt>
      <trkpt lat="48.38456" lon="2.53972">
        <ele>115</ele>
        <time>2017-02-24T14:13:59Z</time>
      </trkpt>
      <trkpt lat="48.3846" lon="2.53987">
        <ele>116</ele>
        <time>2017-02-24T14:14:26Z</time>
      </trkpt>
      <trkpt lat="48.3846" lon="2.54">
        <ele>118</ele>
        <time>2017-02-24T14:16:16Z</time>
      </trkpt>
      <trkpt lat="48.38459" lon="2.54006">
        <ele>118</ele>
        <time>2017-02-24T14:16:22Z</time>
      </trkpt>
      <trkpt lat="48.38456" lon="2.54012">
        <ele>118</ele>
        <time>2017-02-24T14:16:29Z</time>
      </trkpt>
      <trkpt lat="48.38451" lon="2.54013">
        <ele>118</ele>
        <time>2017-02-24T14:16:34Z</time>
      </trkpt>
      <trkpt lat="48.38446" lon="2.54015">
        <ele>117</ele>
        <time>2017-02-24T14:16:41Z</time>
      </trkpt>
      <trkpt lat="48.38442" lon="2.5402">
        <ele>115</ele>
        <time>2017-02-24T14:16:53Z</time>
      </trkpt>
      <trkpt lat="48.3844" lon="2.54027">
        <ele>115</ele>
        <time>2017-02-24T14:17:03Z</time>
      </trkpt>
      <trkpt lat="48.3844" lon="2.54034">
        <ele>114</ele>
        <time>2017-02-24T14:17:08Z</time>
      </trkpt>
      <trkpt lat="48.38444" lon="2.54039">
        <ele>114</ele>
        <time>2017-02-24T14:17:14Z</time>
      </trkpt>
      <trkpt lat="48.3845" lon="2.54045">
        <ele>114</ele>
        <time>2017-02-24T14:17:29Z</time>
      </trkpt>
      <trkpt lat="48.38454" lon="2.54048">
        <ele>115</ele>
        <time>2017-02-24T14:17:33Z</time>
      </trkpt>
      <trkpt lat="48.38456" lon="2.54054">
        <ele>115</ele>
        <time>2017-02-24T14:17:37Z</time>
      </trkpt>
      <trkpt lat="48.38458" lon="2.54061">
        <ele>116</ele>
        <time>2017-02-24T14:17:41Z</time>
      </trkpt>
      <trkpt lat="48.38458" lon="2.54068">
        <ele>116</ele>
        <time>2017-02-24T14:17:47Z</time>
      </trkpt>
      <trkpt lat="48.38458" lon="2.54075">
        <ele>116</ele>
        <time>2017-02-24T14:17:51Z</time>
      </trkpt>
      <trkpt lat="48.38454" lon="2.54091">
        <ele>116</ele>
        <time>2017-02-24T14:18:12Z</time>
      </trkpt>
      <trkpt lat="48.38449" lon="2.54099">
        <ele>116</ele>
        <time>2017-02-24T14:18:23Z</time>
      </trkpt>
      <trkpt lat="48.38451" lon="2.54105">
        <ele>115</ele>
        <time>2017-02-24T14:18:29Z</time>
      </trkpt>
      <trkpt lat="48.3845" lon="2.54112">
        <ele>116</ele>
        <time>2017-02-24T14:18:39Z</time>
      </trkpt>
      <trkpt lat="48.38443" lon="2.54119">
        <ele>116</ele>
        <time>2017-02-24T14:19:04Z</time>
      </trkpt>
      <trkpt lat="48.38453" lon="2.54134">
        <ele>115</ele>
        <time>2017-02-24T14:19:37Z</time>
      </trkpt>
      <trkpt lat="48.3846" lon="2.54144">
        <ele>116</ele>
        <time>2017-02-24T14:19:49Z</time>
      </trkpt>
      <trkpt lat="48.38453" lon="2.54154">
        <ele>114</ele>
        <time>2017-02-24T14:20:07Z</time>
      </trkpt>
      <trkpt lat="48.38442" lon="2.54163">
        <ele>110</ele>
        <time>2017-02-24T14:20:39Z</time>
      </trkpt>
      <trkpt lat="48.38437" lon="2.5416">
        <ele>106</ele>
        <time>2017-02-24T14:20:59Z</time>
      </trkpt>
      <trkpt lat="48.38433" lon="2.54167">
        <ele>105</ele>
        <time>2017-02-24T14:21:14Z</time>
      </trkpt>
      <trkpt lat="48.38429" lon="2.54161">
        <ele>104</ele>
        <time>2017-02-24T14:21:33Z</time>
      </trkpt>
      <trkpt lat="48.38427" lon="2.5417">
        <ele>103</ele>
        <time>2017-02-24T14:21:48Z</time>
      </trkpt>
      <trkpt lat="48.38424" lon="2.54176">
        <ele>103</ele>
        <time>2017-02-24T14:21:53Z</time>
      </trkpt>
      <trkpt lat="48.38426" lon="2.54183">
        <ele>102</ele>
        <time>2017-02-24T14:22:01Z</time>
      </trkpt>
      <trkpt lat="48.38423" lon="2.54189">
        <ele>102</ele>
        <time>2017-02-24T14:22:07Z</time>
      </trkpt>
      <trkpt lat="48.38419" lon="2.54192">
        <ele>102</ele>
        <time>2017-02-24T14:22:12Z</time>
      </trkpt>
      <trkpt lat="48.3841" lon="2.5419">
        <ele>101</ele>
        <time>2017-02-24T14:22:20Z</time>
      </trkpt>
      <trkpt lat="48.384" lon="2.542">
        <ele>100</ele>
        <time>2017-02-24T14:22:28Z</time>
      </trkpt>
      <trkpt lat="48.38398" lon="2.54206">
        <ele>99</ele>
        <time>2017-02-24T14:22:33Z</time>
      </trkpt>
      <trkpt lat="48.38396" lon="2.54205">
        <ele>94</ele>
        <time>2017-02-24T14:24:15Z</time>
      </trkpt>
      <trkpt lat="48.38394" lon="2.54198">
        <ele>94</ele>
        <time>2017-02-24T14:24:20Z</time>
      </trkpt>
      <trkpt lat="48.38391" lon="2.54191">
        <ele>95</ele>
        <time>2017-02-24T14:24:26Z</time>
      </trkpt>
      <trkpt lat="48.3839" lon="2.54184">
        <ele>95</ele>
        <time>2017-02-24T14:24:31Z</time>
      </trkpt>
      <trkpt lat="48.38385" lon="2.54171">
        <ele>95</ele>
        <time>2017-02-24T14:24:41Z</time>
      </trkpt>
      <trkpt lat="48.38382" lon="2.54164">
        <ele>94</ele>
        <time>2017-02-24T14:24:46Z</time>
      </trkpt>
      <trkpt lat="48.38381" lon="2.54149">
        <ele>94</ele>
        <time>2017-02-24T14:24:58Z</time>
      </trkpt>
      <trkpt lat="48.3838" lon="2.54142">
        <ele>93</ele>
        <time>2017-02-24T14:25:02Z</time>
      </trkpt>
      <trkpt lat="48.38364" lon="2.5412">
        <ele>91</ele>
        <time>2017-02-24T14:25:18Z</time>
      </trkpt>
      <trkpt lat="48.38355" lon="2.54112">
        <ele>90</ele>
        <time>2017-02-24T14:25:28Z</time>
      </trkpt>
      <trkpt lat="48.38352" lon="2.54106">
        <ele>90</ele>
        <time>2017-02-24T14:25:34Z</time>
      </trkpt>
      <trkpt lat="48.38346" lon="2.54095">
        <ele>88</ele>
        <time>2017-02-24T14:25:44Z</time>
      </trkpt>
      <trkpt lat="48.38342" lon="2.54082">
        <ele>86</ele>
        <time>2017-02-24T14:25:54Z</time>
      </trkpt>
      <trkpt lat="48.38319" lon="2.54066">
        <ele>83</ele>
        <time>2017-02-24T14:26:17Z</time>
      </trkpt>
      <trkpt lat="48.38305" lon="2.54056">
        <ele>83</ele>
        <time>2017-02-24T14:26:29Z</time>
      </trkpt>
      <trkpt lat="48.383" lon="2.54052">
        <ele>83</ele>
        <time>2017-02-24T14:26:33Z</time>
      </trkpt>
      <trkpt lat="48.38296" lon="2.54049">
        <ele>83</ele>
        <time>2017-02-24T14:26:38Z</time>
      </trkpt>
      <trkpt lat="48.38295" lon="2.54042">
        <ele>83</ele>
        <time>2017-02-24T14:26:44Z</time>
      </trkpt>
      <trkpt lat="48.38297" lon="2.54035">
        <ele>82</ele>
        <time>2017-02-24T14:26:49Z</time>
      </trkpt>
      <trkpt lat="48.38302" lon="2.54032">
        <ele>82</ele>
        <time>2017-02-24T14:26:54Z</time>
      </trkpt>
      <trkpt lat="48.38307" lon="2.54031">
        <ele>81</ele>
        <time>2017-02-24T14:26:58Z</time>
      </trkpt>
      <trkpt lat="48.3831" lon="2.54021">
        <ele>77</ele>
        <time>2017-02-24T14:28:14Z</time>
      </trkpt>
      <trkpt lat="48.38315" lon="2.54017">
        <ele>77</ele>
        <time>2017-02-24T14:28:22Z</time>
      </trkpt>
      <trkpt lat="48.38319" lon="2.54012">
        <ele>76</ele>
        <time>2017-02-24T14:28:28Z</time>
      </trkpt>
      <trkpt lat="48.38323" lon="2.54008">
        <ele>76</ele>
        <time>2017-02-24T14:28:33Z</time>
      </trkpt>
      <trkpt lat="48.38331" lon="2.54">
        <ele>76</ele>
        <time>2017-02-24T14:28:43Z</time>
      </trkpt>
      <trkpt lat="48.38334" lon="2.53994">
        <ele>76</ele>
        <time>2017-02-24T14:28:48Z</time>
      </trkpt>
      <trkpt lat="48.38335" lon="2.53988">
        <ele>76</ele>
        <time>2017-02-24T14:28:53Z</time>
      </trkpt>
      <trkpt lat="48.38336" lon="2.53981">
        <ele>75</ele>
        <time>2017-02-24T14:28:58Z</time>
      </trkpt>
      <trkpt lat="48.3834" lon="2.53968">
        <ele>73</ele>
        <time>2017-02-24T14:29:11Z</time>
      </trkpt>
      <trkpt lat="48.38344" lon="2.53964">
        <ele>73</ele>
        <time>2017-02-24T14:29:16Z</time>
      </trkpt>
      <trkpt lat="48.38348" lon="2.53942">
        <ele>74</ele>
        <time>2017-02-24T14:29:31Z</time>
      </trkpt>
      <trkpt lat="48.3835" lon="2.53935">
        <ele>75</ele>
        <time>2017-02-24T14:29:36Z</time>
      </trkpt>
      <trkpt lat="48.38353" lon="2.53928">
        <ele>76</ele>
        <time>2017-02-24T14:29:40Z</time>
      </trkpt>
      <trkpt lat="48.38354" lon="2.53921">
        <ele>77</ele>
        <time>2017-02-24T14:29:44Z</time>
      </trkpt>
      <trkpt lat="48.38357" lon="2.53915">
        <ele>78</ele>
        <time>2017-02-24T14:29:50Z</time>
      </trkpt>
      <trkpt lat="48.3837" lon="2.53882">
        <ele>82</ele>
        <time>2017-02-24T14:30:16Z</time>
      </trkpt>
      <trkpt lat="48.38378" lon="2.53862">
        <ele>82</ele>
        <time>2017-02-24T14:30:30Z</time>
      </trkpt>
      <trkpt lat="48.38383" lon="2.53849">
        <ele>84</ele>
        <time>2017-02-24T14:30:39Z</time>
      </trkpt>
      <trkpt lat="48.38388" lon="2.53835">
        <ele>85</ele>
        <time>2017-02-24T14:30:48Z</time>
      </trkpt>
      <trkpt lat="48.38395" lon="2.53809">
        <ele>85</ele>
        <time>2017-02-24T14:31:05Z</time>
      </trkpt>
      <trkpt lat="48.38396" lon="2.53795">
        <ele>85</ele>
        <time>2017-02-24T14:31:13Z</time>
      </trkpt>
      <trkpt lat="48.384" lon="2.53782">
        <ele>85</ele>
        <time>2017-02-24T14:31:31Z</time>
      </trkpt>
      <trkpt lat="48.384" lon="2.53772">
        <ele>85</ele>
        <time>2017-02-24T14:31:42Z</time>
      </trkpt>
      <trkpt lat="48.38392" lon="2.53766">
        <ele>84</ele>
        <time>2017-02-24T14:32:14Z</time>
      </trkpt>
      <trkpt lat="48.38388" lon="2.53769">
        <ele>83</ele>
        <time>2017-02-24T14:32:20Z</time>
      </trkpt>
      <trkpt lat="48.38384" lon="2.53773">
        <ele>83</ele>
        <time>2017-02-24T14:32:26Z</time>
      </trkpt>
      <trkpt lat="48.38379" lon="2.53766">
        <ele>83</ele>
        <time>2017-02-24T14:32:44Z</time>
      </trkpt>
      <trkpt lat="48.38374" lon="2.53764">
        <ele>78</ele>
        <time>2017-02-24T14:35:49Z</time>
      </trkpt>
      <trkpt lat="48.38355" lon="2.53755">
        <ele>79</ele>
        <time>2017-02-24T14:36:06Z</time>
      </trkpt>
      <trkpt lat="48.38329" lon="2.53733">
        <ele>77</ele>
        <time>2017-02-24T14:36:34Z</time>
      </trkpt>
      <trkpt lat="48.38326" lon="2.53727">
        <ele>77</ele>
        <time>2017-02-24T14:36:38Z</time>
      </trkpt>
      <trkpt lat="48.38325" lon="2.5372">
        <ele>77</ele>
        <time>2017-02-24T14:36:42Z</time>
      </trkpt>
      <trkpt lat="48.38322" lon="2.53715">
        <ele>76</ele>
        <time>2017-02-24T14:36:46Z</time>
      </trkpt>
      <trkpt lat="48.38318" lon="2.5371">
        <ele>76</ele>
        <time>2017-02-24T14:36:50Z</time>
      </trkpt>
      <trkpt lat="48.38308" lon="2.53708">
        <ele>76</ele>
        <time>2017-02-24T14:36:58Z</time>
      </trkpt>
      <trkpt lat="48.38301" lon="2.53696">
        <ele>75</ele>
        <time>2017-02-24T14:37:07Z</time>
      </trkpt>
      <trkpt lat="48.38298" lon="2.53689">
        <ele>74</ele>
        <time>2017-02-24T14:37:11Z</time>
      </trkpt>
      <trkpt lat="48.38296" lon="2.53682">
        <ele>74</ele>
        <time>2017-02-24T14:37:16Z</time>
      </trkpt>
      <trkpt lat="48.38293" lon="2.53667">
        <ele>73</ele>
        <time>2017-02-24T14:37:23Z</time>
      </trkpt>
      <trkpt lat="48.38291" lon="2.53661">
        <ele>73</ele>
        <time>2017-02-24T14:37:26Z</time>
      </trkpt>
      <trkpt lat="48.38288" lon="2.53656">
        <ele>73</ele>
        <time>2017-02-24T14:37:29Z</time>
      </trkpt>
      <trkpt lat="48.3826" lon="2.53627">
        <ele>74</ele>
        <time>2017-02-24T14:37:53Z</time>
      </trkpt>
      <trkpt lat="48.38255" lon="2.53622">
        <ele>73</ele>
        <time>2017-02-24T14:38:12Z</time>
      </trkpt>
      <trkpt lat="48.3825" lon="2.53618">
        <ele>74</ele>
        <time>2017-02-24T14:38:16Z</time>
      </trkpt>
      <trkpt lat="48.38227" lon="2.53601">
        <ele>72</ele>
        <time>2017-02-24T14:38:40Z</time>
      </trkpt>
      <trkpt lat="48.38206" lon="2.5359">
        <ele>73</ele>
        <time>2017-02-24T14:38:55Z</time>
      </trkpt>
      <trkpt lat="48.3819" lon="2.53579">
        <ele>72</ele>
        <time>2017-02-24T14:39:07Z</time>
      </trkpt>
      <trkpt lat="48.38177" lon="2.53572">
        <ele>73</ele>
        <time>2017-02-24T14:39:16Z</time>
      </trkpt>
      <trkpt lat="48.38168" lon="2.53565">
        <ele>73</ele>
        <time>2017-02-24T14:39:23Z</time>
      </trkpt>
      <trkpt lat="48.38132" lon="2.53529">
        <ele>72</ele>
        <time>2017-02-24T14:39:55Z</time>
      </trkpt>
      <trkpt lat="48.38131" lon="2.53523">
        <ele>72</ele>
        <time>2017-02-24T14:39:58Z</time>
      </trkpt>
      <trkpt lat="48.3813" lon="2.53514">
        <ele>71</ele>
        <time>2017-02-24T14:40:02Z</time>
      </trkpt>
      <trkpt lat="48.38128" lon="2.53499">
        <ele>71</ele>
        <time>2017-02-24T14:40:09Z</time>
      </trkpt>
      <trkpt lat="48.38124" lon="2.53476">
        <ele>72</ele>
        <time>2017-02-24T14:40:21Z</time>
      </trkpt>
      <trkpt lat="48.38115" lon="2.53449">
        <ele>71</ele>
        <time>2017-02-24T14:40:36Z</time>
      </trkpt>
      <trkpt lat="48.3811" lon="2.53433">
        <ele>71</ele>
        <time>2017-02-24T14:40:44Z</time>
      </trkpt>
      <trkpt lat="48.38104" lon="2.53421">
        <ele>70</ele>
        <time>2017-02-24T14:40:52Z</time>
      </trkpt>
      <trkpt lat="48.38096" lon="2.5341">
        <ele>70</ele>
        <time>2017-02-24T14:41:00Z</time>
      </trkpt>
      <trkpt lat="48.38092" lon="2.53405">
        <ele>70</ele>
        <time>2017-02-24T14:41:05Z</time>
      </trkpt>
      <trkpt lat="48.3806" lon="2.53363">
        <ele>70</ele>
        <time>2017-02-24T14:41:37Z</time>
      </trkpt>
      <trkpt lat="48.38056" lon="2.53359">
        <ele>70</ele>
        <time>2017-02-24T14:41:41Z</time>
      </trkpt>
      <trkpt lat="48.38057" lon="2.53358">
        <ele>71</ele>
        <time>2017-02-24T14:45:33Z</time>
      </trkpt>
      <trkpt lat="48.38051" lon="2.53351">
        <ele>67</ele>
        <time>2017-02-24T14:46:06Z</time>
      </trkpt>
      <trkpt lat="48.38048" lon="2.53345">
        <ele>66</ele>
        <time>2017-02-24T14:46:11Z</time>
      </trkpt>
      <trkpt lat="48.3804" lon="2.53338">
        <ele>67</ele>
        <time>2017-02-24T14:46:21Z</time>
      </trkpt>
      <trkpt lat="48.38017" lon="2.53308">
        <ele>67</ele>
        <time>2017-02-24T14:46:47Z</time>
      </trkpt>
      <trkpt lat="48.38014" lon="2.53302">
        <ele>68</ele>
        <time>2017-02-24T14:46:51Z</time>
      </trkpt>
      <trkpt lat="48.38011" lon="2.53296">
        <ele>68</ele>
        <time>2017-02-24T14:46:55Z</time>
      </trkpt>
      <trkpt lat="48.38004" lon="2.53283">
        <ele>68</ele>
        <time>2017-02-24T14:47:05Z</time>
      </trkpt>
      <trkpt lat="48.37981" lon="2.53251">
        <ele>67</ele>
        <time>2017-02-24T14:47:31Z</time>
      </trkpt>
      <trkpt lat="48.37963" lon="2.5324">
        <ele>68</ele>
        <time>2017-02-24T14:47:46Z</time>
      </trkpt>
      <trkpt lat="48.37959" lon="2.53235">
        <ele>68</ele>
        <time>2017-02-24T14:47:50Z</time>
      </trkpt>
      <trkpt lat="48.37956" lon="2.53229">
        <ele>68</ele>
        <time>2017-02-24T14:47:54Z</time>
      </trkpt>
      <trkpt lat="48.37945" lon="2.53211">
        <ele>68</ele>
        <time>2017-02-24T14:48:06Z</time>
      </trkpt>
      <trkpt lat="48.3794" lon="2.53207">
        <ele>68</ele>
        <time>2017-02-24T14:48:10Z</time>
      </trkpt>
      <trkpt lat="48.37923" lon="2.53191">
        <ele>68</ele>
        <time>2017-02-24T14:48:26Z</time>
      </trkpt>
      <trkpt lat="48.37916" lon="2.53179">
        <ele>68</ele>
        <time>2017-02-24T14:48:34Z</time>
      </trkpt>
      <trkpt lat="48.37913" lon="2.53175">
        <ele>69</ele>
        <time>2017-02-24T14:48:38Z</time>
      </trkpt>
      <trkpt lat="48.37908" lon="2.53172">
        <ele>70</ele>
        <time>2017-02-24T14:48:43Z</time>
      </trkpt>
      <trkpt lat="48.37899" lon="2.53164">
        <ele>71</ele>
        <time>2017-02-24T14:48:51Z</time>
      </trkpt>
      <trkpt lat="48.37868" lon="2.53124">
        <ele>70</ele>
        <time>2017-02-24T14:49:21Z</time>
      </trkpt>
      <trkpt lat="48.3786" lon="2.53105">
        <ele>70</ele>
        <time>2017-02-24T14:49:33Z</time>
      </trkpt>
      <trkpt lat="48.37857" lon="2.53098">
        <ele>69</ele>
        <time>2017-02-24T14:49:38Z</time>
      </trkpt>
      <trkpt lat="48.37853" lon="2.53093">
        <ele>69</ele>
        <time>2017-02-24T14:49:42Z</time>
      </trkpt>
      <trkpt lat="48.37841" lon="2.53078">
        <ele>69</ele>
        <time>2017-02-24T14:49:54Z</time>
      </trkpt>
      <trkpt lat="48.37831" lon="2.5307">
        <ele>69</ele>
        <time>2017-02-24T14:50:02Z</time>
      </trkpt>
      <trkpt lat="48.37814" lon="2.5305">
        <ele>71</ele>
        <time>2017-02-24T14:50:18Z</time>
      </trkpt>
      <trkpt lat="48.37799" lon="2.53042">
        <ele>73</ele>
        <time>2017-02-24T14:50:30Z</time>
      </trkpt>
      <trkpt lat="48.37795" lon="2.5304">
        <ele>72</ele>
        <time>2017-02-24T14:50:34Z</time>
      </trkpt>
      <trkpt lat="48.3779" lon="2.53039">
        <ele>73</ele>
        <time>2017-02-24T14:50:38Z</time>
      </trkpt>
      <trkpt lat="48.37784" lon="2.53038">
        <ele>73</ele>
        <time>2017-02-24T14:50:43Z</time>
      </trkpt>
      <trkpt lat="48.37779" lon="2.53037">
        <ele>72</ele>
        <time>2017-02-24T14:50:47Z</time>
      </trkpt>
      <trkpt lat="48.37768" lon="2.53036">
        <ele>72</ele>
        <time>2017-02-24T14:50:55Z</time>
      </trkpt>
      <trkpt lat="48.37763" lon="2.53038">
        <ele>72</ele>
        <time>2017-02-24T14:50:58Z</time>
      </trkpt>
      <trkpt lat="48.37757" lon="2.53038">
        <ele>72</ele>
        <time>2017-02-24T14:51:02Z</time>
      </trkpt>
      <trkpt lat="48.37748" lon="2.53032">
        <ele>71</ele>
        <time>2017-02-24T14:51:10Z</time>
      </trkpt>
      <trkpt lat="48.37733" lon="2.5302">
        <ele>71</ele>
        <time>2017-02-24T14:51:21Z</time>
      </trkpt>
      <trkpt lat="48.37715" lon="2.52983">
        <ele>71</ele>
        <time>2017-02-24T14:51:44Z</time>
      </trkpt>
      <trkpt lat="48.37712" lon="2.52977">
        <ele>72</ele>
        <time>2017-02-24T14:51:47Z</time>
      </trkpt>
      <trkpt lat="48.37709" lon="2.52969">
        <ele>72</ele>
        <time>2017-02-24T14:51:51Z</time>
      </trkpt>
      <trkpt lat="48.37702" lon="2.52956">
        <ele>72</ele>
        <time>2017-02-24T14:51:59Z</time>
      </trkpt>
      <trkpt lat="48.37698" lon="2.52953">
        <ele>71</ele>
        <time>2017-02-24T14:52:06Z</time>
      </trkpt>
      <trkpt lat="48.37695" lon="2.52948">
        <ele>70</ele>
        <time>2017-02-24T14:52:09Z</time>
      </trkpt>
      <trkpt lat="48.37692" lon="2.52942">
        <ele>70</ele>
        <time>2017-02-24T14:52:12Z</time>
      </trkpt>
      <trkpt lat="48.37663" lon="2.52895">
        <ele>70</ele>
        <time>2017-02-24T14:52:44Z</time>
      </trkpt>
      <trkpt lat="48.37646" lon="2.52865">
        <ele>70</ele>
        <time>2017-02-24T14:53:02Z</time>
      </trkpt>
      <trkpt lat="48.37643" lon="2.52859">
        <ele>69</ele>
        <time>2017-02-24T14:53:06Z</time>
      </trkpt>
      <trkpt lat="48.37637" lon="2.52845">
        <ele>68</ele>
        <time>2017-02-24T14:53:14Z</time>
      </trkpt>
      <trkpt lat="48.37633" lon="2.52838">
        <ele>68</ele>
        <time>2017-02-24T14:53:18Z</time>
      </trkpt>
      <trkpt lat="48.37629" lon="2.52833">
        <ele>69</ele>
        <time>2017-02-24T14:53:22Z</time>
      </trkpt>
      <trkpt lat="48.37625" lon="2.52827">
        <ele>69</ele>
        <time>2017-02-24T14:53:26Z</time>
      </trkpt>
      <trkpt lat="48.37621" lon="2.52814">
        <ele>68</ele>
        <time>2017-02-24T14:53:35Z</time>
      </trkpt>
      <trkpt lat="48.37617" lon="2.52807">
        <ele>68</ele>
        <time>2017-02-24T14:53:40Z</time>
      </trkpt>
      <trkpt lat="48.37595" lon="2.52775">
        <ele>66</ele>
        <time>2017-02-24T14:54:03Z</time>
      </trkpt>
      <trkpt lat="48.37592" lon="2.5277">
        <ele>66</ele>
        <time>2017-02-24T14:54:07Z</time>
      </trkpt>
      <trkpt lat="48.3756" lon="2.52721">
        <ele>66</ele>
        <time>2017-02-24T14:54:40Z</time>
      </trkpt>
      <trkpt lat="48.37528" lon="2.52672">
        <ele>65</ele>
        <time>2017-02-24T14:55:12Z</time>
      </trkpt>
      <trkpt lat="48.37525" lon="2.52666">
        <ele>65</ele>
        <time>2017-02-24T14:55:16Z</time>
      </trkpt>
      <trkpt lat="48.37519" lon="2.52655">
        <ele>66</ele>
        <time>2017-02-24T14:55:22Z</time>
      </trkpt>
      <trkpt lat="48.37511" lon="2.52643">
        <ele>66</ele>
        <time>2017-02-24T14:55:29Z</time>
      </trkpt>
      <trkpt lat="48.37505" lon="2.52629">
        <ele>66</ele>
        <time>2017-02-24T14:55:37Z</time>
      </trkpt>
      <trkpt lat="48.37502" lon="2.52622">
        <ele>66</ele>
        <time>2017-02-24T14:55:41Z</time>
      </trkpt>
      <trkpt lat="48.37497" lon="2.52607">
        <ele>69</ele>
        <time>2017-02-24T14:55:48Z</time>
      </trkpt>
      <trkpt lat="48.37486" lon="2.52587">
        <ele>70</ele>
        <time>2017-02-24T14:56:00Z</time>
      </trkpt>
      <trkpt lat="48.3748" lon="2.52577">
        <ele>69</ele>
        <time>2017-02-24T14:56:08Z</time>
      </trkpt>
      <trkpt lat="48.37477" lon="2.5257">
        <ele>69</ele>
        <time>2017-02-24T14:56:12Z</time>
      </trkpt>
      <trkpt lat="48.3747" lon="2.52558">
        <ele>68</ele>
        <time>2017-02-24T14:56:19Z</time>
      </trkpt>
      <trkpt lat="48.37459" lon="2.52542">
        <ele>67</ele>
        <time>2017-02-24T14:56:31Z</time>
      </trkpt>
      <trkpt lat="48.37447" lon="2.52516">
        <ele>66</ele>
        <time>2017-02-24T14:56:46Z</time>
      </trkpt>
      <trkpt lat="48.37423" lon="2.52453">
        <ele>68</ele>
        <time>2017-02-24T14:57:20Z</time>
      </trkpt>
      <trkpt lat="48.37416" lon="2.52435">
        <ele>68</ele>
        <time>2017-02-24T14:57:29Z</time>
      </trkpt>
      <trkpt lat="48.37413" lon="2.52428">
        <ele>69</ele>
        <time>2017-02-24T14:57:33Z</time>
      </trkpt>
      <trkpt lat="48.37409" lon="2.52422">
        <ele>68</ele>
        <time>2017-02-24T14:57:37Z</time>
      </trkpt>
      <trkpt lat="48.37407" lon="2.52415">
        <ele>69</ele>
        <time>2017-02-24T14:57:41Z</time>
      </trkpt>
      <trkpt lat="48.37399" lon="2.52395">
        <ele>69</ele>
        <time>2017-02-24T14:57:53Z</time>
      </trkpt>
      <trkpt lat="48.37396" lon="2.52389">
        <ele>69</ele>
        <time>2017-02-24T14:57:56Z</time>
      </trkpt>
      <trkpt lat="48.37386" lon="2.5237">
        <ele>69</ele>
        <time>2017-02-24T14:58:08Z</time>
      </trkpt>
      <trkpt lat="48.37383" lon="2.52363">
        <ele>69</ele>
        <time>2017-02-24T14:58:12Z</time>
      </trkpt>
      <trkpt lat="48.37378" lon="2.5235">
        <ele>69</ele>
        <time>2017-02-24T14:58:19Z</time>
      </trkpt>
      <trkpt lat="48.37369" lon="2.52332">
        <ele>68</ele>
        <time>2017-02-24T14:58:31Z</time>
      </trkpt>
      <trkpt lat="48.37364" lon="2.52318">
        <ele>68</ele>
        <time>2017-02-24T14:58:39Z</time>
      </trkpt>
      <trkpt lat="48.37349" lon="2.52289">
        <ele>68</ele>
        <time>2017-02-24T14:58:56Z</time>
      </trkpt>
      <trkpt lat="48.37336" lon="2.52263">
        <ele>69</ele>
        <time>2017-02-24T14:59:10Z</time>
      </trkpt>
      <trkpt lat="48.37326" lon="2.52249">
        <ele>70</ele>
        <time>2017-02-24T14:59:19Z</time>
      </trkpt>
      <trkpt lat="48.37307" lon="2.5223">
        <ele>69</ele>
        <time>2017-02-24T14:59:35Z</time>
      </trkpt>
      <trkpt lat="48.37298" lon="2.52217">
        <ele>68</ele>
        <time>2017-02-24T14:59:42Z</time>
      </trkpt>
      <trkpt lat="48.37293" lon="2.52214">
        <ele>68</ele>
        <time>2017-02-24T14:59:46Z</time>
      </trkpt>
      <trkpt lat="48.37289" lon="2.5221">
        <ele>68</ele>
        <time>2017-02-24T14:59:50Z</time>
      </trkpt>
      <trkpt lat="48.37286" lon="2.52203">
        <ele>68</ele>
        <time>2017-02-24T14:59:54Z</time>
      </trkpt>
      <trkpt lat="48.37282" lon="2.52199">
        <ele>68</ele>
        <time>2017-02-24T14:59:58Z</time>
      </trkpt>
      <trkpt lat="48.37279" lon="2.52193">
        <ele>68</ele>
        <time>2017-02-24T15:00:02Z</time>
      </trkpt>
      <trkpt lat="48.37254" lon="2.52155">
        <ele>70</ele>
        <time>2017-02-24T15:00:32Z</time>
      </trkpt>
      <trkpt lat="48.37251" lon="2.5215">
        <ele>70</ele>
        <time>2017-02-24T15:00:37Z</time>
      </trkpt>
      <trkpt lat="48.37247" lon="2.52145">
        <ele>69</ele>
        <time>2017-02-24T15:00:44Z</time>
      </trkpt>
      <trkpt lat="48.37233" lon="2.52133">
        <ele>68</ele>
        <time>2017-02-24T15:00:59Z</time>
      </trkpt>
      <trkpt lat="48.3723" lon="2.52128">
        <ele>68</ele>
        <time>2017-02-24T15:01:03Z</time>
      </trkpt>
      <trkpt lat="48.37209" lon="2.52096">
        <ele>68</ele>
        <time>2017-02-24T15:01:29Z</time>
      </trkpt>
      <trkpt lat="48.37202" lon="2.52085">
        <ele>69</ele>
        <time>2017-02-24T15:01:38Z</time>
      </trkpt>
      <trkpt lat="48.37198" lon="2.52081">
        <ele>69</ele>
        <time>2017-02-24T15:01:42Z</time>
      </trkpt>
      <trkpt lat="48.37184" lon="2.52074">
        <ele>69</ele>
        <time>2017-02-24T15:01:53Z</time>
      </trkpt>
      <trkpt lat="48.37179" lon="2.52073">
        <ele>69</ele>
        <time>2017-02-24T15:01:56Z</time>
      </trkpt>
      <trkpt lat="48.37164" lon="2.52065">
        <ele>70</ele>
        <time>2017-02-24T15:02:08Z</time>
      </trkpt>
      <trkpt lat="48.3716" lon="2.52061">
        <ele>69</ele>
        <time>2017-02-24T15:02:13Z</time>
      </trkpt>
      <trkpt lat="48.37155" lon="2.52048">
        <ele>68</ele>
        <time>2017-02-24T15:02:22Z</time>
      </trkpt>
      <trkpt lat="48.37156" lon="2.52033">
        <ele>68</ele>
        <time>2017-02-24T15:02:31Z</time>
      </trkpt>
      <trkpt lat="48.37164" lon="2.52028">
        <ele>69</ele>
        <time>2017-02-24T15:03:03Z</time>
      </trkpt>
      <trkpt lat="48.37173" lon="2.52024">
        <ele>69</ele>
        <time>2017-02-24T15:03:11Z</time>
      </trkpt>
      <trkpt lat="48.37185" lon="2.5202">
        <ele>68</ele>
        <time>2017-02-24T15:03:42Z</time>
      </trkpt>
      <trkpt lat="48.3722" lon="2.51995">
        <ele>70</ele>
        <time>2017-02-24T15:04:18Z</time>
      </trkpt>
      <trkpt lat="48.37238" lon="2.51985">
        <ele>70</ele>
        <time>2017-02-24T15:04:34Z</time>
      </trkpt>
      <trkpt lat="48.37247" lon="2.51981">
        <ele>69</ele>
        <time>2017-02-24T15:04:42Z</time>
      </trkpt>
      <trkpt lat="48.37256" lon="2.51972">
        <ele>69</ele>
        <time>2017-02-24T15:04:49Z</time>
      </trkpt>
      <trkpt lat="48.37264" lon="2.51965">
        <ele>68</ele>
        <time>2017-02-24T15:04:55Z</time>
      </trkpt>
      <trkpt lat="48.37271" lon="2.51956">
        <ele>68</ele>
        <time>2017-02-24T15:05:03Z</time>
      </trkpt>
      <trkpt lat="48.37288" lon="2.51943">
        <ele>70</ele>
        <time>2017-02-24T15:05:21Z</time>
      </trkpt>
      <trkpt lat="48.37298" lon="2.51941">
        <ele>71</ele>
        <time>2017-02-24T15:05:29Z</time>
      </trkpt>
      <trkpt lat="48.37306" lon="2.51934">
        <ele>72</ele>
        <time>2017-02-24T15:05:38Z</time>
      </trkpt>
      <trkpt lat="48.37339" lon="2.51904">
        <ele>74</ele>
        <time>2017-02-24T15:06:14Z</time>
      </trkpt>
      <trkpt lat="48.37339" lon="2.51871">
        <ele>75</ele>
        <time>2017-02-24T15:06:48Z</time>
      </trkpt>
      <trkpt lat="48.37341" lon="2.51857">
        <ele>77</ele>
        <time>2017-02-24T15:07:03Z</time>
      </trkpt>
      <trkpt lat="48.37341" lon="2.51841">
        <ele>78</ele>
        <time>2017-02-24T15:07:25Z</time>
      </trkpt>
      <trkpt lat="48.3734" lon="2.51826">
        <ele>80</ele>
        <time>2017-02-24T15:07:40Z</time>
      </trkpt>
      <trkpt lat="48.37348" lon="2.51819">
        <ele>81</ele>
        <time>2017-02-24T15:08:03Z</time>
      </trkpt>
      <trkpt lat="48.37363" lon="2.51816">
        <ele>86</ele>
        <time>2017-02-24T15:08:52Z</time>
      </trkpt>
      <trkpt lat="48.37369" lon="2.51804">
        <ele>89</ele>
        <time>2017-02-24T15:09:18Z</time>
      </trkpt>
      <trkpt lat="48.37371" lon="2.5179">
        <ele>94</ele>
        <time>2017-02-24T15:11:09Z</time>
      </trkpt>
      <trkpt lat="48.37381" lon="2.51796">
        <ele>95</ele>
        <time>2017-02-24T15:11:51Z</time>
      </trkpt>
      <trkpt lat="48.37385" lon="2.51785">
        <ele>101</ele>
        <time>2017-02-24T15:16:40Z</time>
      </trkpt>
      <trkpt lat="48.37392" lon="2.51774">
        <ele>101</ele>
        <time>2017-02-24T15:16:53Z</time>
      </trkpt>
      <trkpt lat="48.37401" lon="2.51772">
        <ele>103</ele>
        <time>2017-02-24T15:17:07Z</time>
      </trkpt>
      <trkpt lat="48.3741" lon="2.51767">
        <ele>104</ele>
        <time>2017-02-24T15:17:16Z</time>
      </trkpt>
      <trkpt lat="48.37418" lon="2.51761">
        <ele>103</ele>
        <time>2017-02-24T15:17:28Z</time>
      </trkpt>
      <trkpt lat="48.37427" lon="2.51767">
        <ele>104</ele>
        <time>2017-02-24T15:17:37Z</time>
      </trkpt>
      <trkpt lat="48.37444" lon="2.51779">
        <ele>103</ele>
        <time>2017-02-24T15:17:55Z</time>
      </trkpt>
      <trkpt lat="48.37454" lon="2.51802">
        <ele>102</ele>
        <time>2017-02-24T15:18:18Z</time>
      </trkpt>
      <trkpt lat="48.37453" lon="2.51809">
        <ele>101</ele>
        <time>2017-02-24T15:18:24Z</time>
      </trkpt>
      <trkpt lat="48.37456" lon="2.51815">
        <ele>101</ele>
        <time>2017-02-24T15:18:30Z</time>
      </trkpt>
      <trkpt lat="48.37461" lon="2.51817">
        <ele>101</ele>
        <time>2017-02-24T15:18:35Z</time>
      </trkpt>
      <trkpt lat="48.37464" lon="2.51821">
        <ele>101</ele>
        <time>2017-02-24T15:18:41Z</time>
      </trkpt>
      <trkpt lat="48.37469" lon="2.51823">
        <ele>101</ele>
        <time>2017-02-24T15:18:47Z</time>
      </trkpt>
      <trkpt lat="48.37474" lon="2.51826">
        <ele>102</ele>
        <time>2017-02-24T15:18:52Z</time>
      </trkpt>
      <trkpt lat="48.37479" lon="2.51828">
        <ele>101</ele>
        <time>2017-02-24T15:18:57Z</time>
      </trkpt>
      <trkpt lat="48.37484" lon="2.51827">
        <ele>101</ele>
        <time>2017-02-24T15:19:01Z</time>
      </trkpt>
      <trkpt lat="48.37488" lon="2.51823">
        <ele>101</ele>
        <time>2017-02-24T15:19:05Z</time>
      </trkpt>
      <trkpt lat="48.37492" lon="2.51809">
        <ele>101</ele>
        <time>2017-02-24T15:19:16Z</time>
      </trkpt>
      <trkpt lat="48.37492" lon="2.51795">
        <ele>101</ele>
        <time>2017-02-24T15:19:23Z</time>
      </trkpt>
      <trkpt lat="48.37494" lon="2.51788">
        <ele>101</ele>
        <time>2017-02-24T15:19:28Z</time>
      </trkpt>
      <trkpt lat="48.37495" lon="2.51782">
        <ele>102</ele>
        <time>2017-02-24T15:19:33Z</time>
      </trkpt>
      <trkpt lat="48.37495" lon="2.51775">
        <ele>102</ele>
        <time>2017-02-24T15:19:38Z</time>
      </trkpt>
      <trkpt lat="48.37495" lon="2.51767">
        <ele>101</ele>
        <time>2017-02-24T15:19:44Z</time>
      </trkpt>
      <trkpt lat="48.37498" lon="2.5176">
        <ele>101</ele>
        <time>2017-02-24T15:19:50Z</time>
      </trkpt>
      <trkpt lat="48.37502" lon="2.51754">
        <ele>101</ele>
        <time>2017-02-24T15:19:55Z</time>
      </trkpt>
      <trkpt lat="48.37506" lon="2.5175">
        <ele>101</ele>
        <time>2017-02-24T15:19:59Z</time>
      </trkpt>
      <trkpt lat="48.37508" lon="2.51744">
        <ele>101</ele>
        <time>2017-02-24T15:20:04Z</time>
      </trkpt>
      <trkpt lat="48.3751" lon="2.5173">
        <ele>100</ele>
        <time>2017-02-24T15:20:15Z</time>
      </trkpt>
      <trkpt lat="48.37504" lon="2.51718">
        <ele>99</ele>
        <time>2017-02-24T15:20:40Z</time>
      </trkpt>
      <trkpt lat="48.37501" lon="2.51705">
        <ele>98</ele>
        <time>2017-02-24T15:20:54Z</time>
      </trkpt>
      <trkpt lat="48.37492" lon="2.51687">
        <ele>95</ele>
        <time>2017-02-24T15:21:11Z</time>
      </trkpt>
      <trkpt lat="48.37489" lon="2.51682">
        <ele>94</ele>
        <time>2017-02-24T15:21:16Z</time>
      </trkpt>
      <trkpt lat="48.37475" lon="2.51658">
        <ele>94</ele>
        <time>2017-02-24T15:21:36Z</time>
      </trkpt>
      <trkpt lat="48.37471" lon="2.51645">
        <ele>93</ele>
        <time>2017-02-24T15:21:45Z</time>
      </trkpt>
      <trkpt lat="48.37464" lon="2.51634">
        <ele>93</ele>
        <time>2017-02-24T15:21:54Z</time>
      </trkpt>
      <trkpt lat="48.37453" lon="2.51618">
        <ele>91</ele>
        <time>2017-02-24T15:22:07Z</time>
      </trkpt>
      <trkpt lat="48.37448" lon="2.51605">
        <ele>89</ele>
        <time>2017-02-24T15:22:19Z</time>
      </trkpt>
      <trkpt lat="48.37441" lon="2.51593">
        <ele>88</ele>
        <time>2017-02-24T15:22:29Z</time>
      </trkpt>
      <trkpt lat="48.3744" lon="2.51586">
        <ele>87</ele>
        <time>2017-02-24T15:22:33Z</time>
      </trkpt>
      <trkpt lat="48.37434" lon="2.51573">
        <ele>87</ele>
        <time>2017-02-24T15:22:41Z</time>
      </trkpt>
      <trkpt lat="48.37432" lon="2.51567">
        <ele>86</ele>
        <time>2017-02-24T15:22:46Z</time>
      </trkpt>
      <trkpt lat="48.37422" lon="2.51552">
        <ele>83</ele>
        <time>2017-02-24T15:23:01Z</time>
      </trkpt>
      <trkpt lat="48.3742" lon="2.51545">
        <ele>83</ele>
        <time>2017-02-24T15:23:05Z</time>
      </trkpt>
      <trkpt lat="48.37415" lon="2.51539">
        <ele>83</ele>
        <time>2017-02-24T15:23:10Z</time>
      </trkpt>
      <trkpt lat="48.37403" lon="2.51497">
        <ele>81</ele>
        <time>2017-02-24T15:23:36Z</time>
      </trkpt>
      <trkpt lat="48.374" lon="2.51483">
        <ele>80</ele>
        <time>2017-02-24T15:23:46Z</time>
      </trkpt>
      <trkpt lat="48.374" lon="2.51439">
        <ele>77</ele>
        <time>2017-02-24T15:24:11Z</time>
      </trkpt>
      <trkpt lat="48.37397" lon="2.51425">
        <ele>77</ele>
        <time>2017-02-24T15:24:21Z</time>
      </trkpt>
      <trkpt lat="48.37395" lon="2.51397">
        <ele>77</ele>
        <time>2017-02-24T15:24:38Z</time>
      </trkpt>
      <trkpt lat="48.37386" lon="2.51355">
        <ele>76</ele>
        <time>2017-02-24T15:25:02Z</time>
      </trkpt>
      <trkpt lat="48.37361" lon="2.51311">
        <ele>75</ele>
        <time>2017-02-24T15:25:37Z</time>
      </trkpt>
      <trkpt lat="48.37355" lon="2.513">
        <ele>76</ele>
        <time>2017-02-24T15:25:46Z</time>
      </trkpt>
      <trkpt lat="48.37341" lon="2.51262">
        <ele>73</ele>
        <time>2017-02-24T15:26:12Z</time>
      </trkpt>
      <trkpt lat="48.37325" lon="2.51226">
        <ele>72</ele>
        <time>2017-02-24T15:26:41Z</time>
      </trkpt>
      <trkpt lat="48.37319" lon="2.51202">
        <ele>72</ele>
        <time>2017-02-24T15:26:59Z</time>
      </trkpt>
      <trkpt lat="48.37307" lon="2.51076">
        <ele>69</ele>
        <time>2017-02-24T15:28:45Z</time>
      </trkpt>
      <trkpt lat="48.37306" lon="2.51037">
        <ele>71</ele>
        <time>2017-02-24T15:31:29Z</time>
      </trkpt>
    </trkseg>
  </trk>
</gpx>